<?xml version='1.0' encoding='utf-8'?>
<gpx xmlns="http://www.topografix.com/GPX/1/1" xmlns:xsi="http://www.w3.org/2001/XMLSchema-instance" version="v1.1.5" creator="iTravel Tech Inc. - http://www.itravel-tech.com" xsi:schemaLocation="http://www.topografix.com/GPX/1/1 http://www.topografix.com/GPX/1/1/gpx.xsd http://www.topografix.com/GPX/gpx_overlay/0/3 http://www.topografix.com/GPX/gpx_overlay/0/3/gpx_overlay.xsd http://www.topografix.com/GPX/gpx_modified/0/1 http://www.topografix.com/GPX/gpx_modified/0/1/gpx_modified.xsd">
<trk>
<name>Holux2011/10/13_10:19</name>
<trkseg>
<trkpt lat="44.537769" lon="34.274376">
<ele>11.4</ele>
<time>2011-10-13T07:19:07Z</time>
<desc>lat.=44.537769, lon.=34.274376, Alt.=119.456116m. Speed=0.576000m/h.</desc>
<speed>0.160000</speed>
</trkpt>
<trkpt lat="44.537838" lon="34.274479">
<ele>9.1</ele>
<time>2011-10-13T07:19:17Z</time>
<desc>lat.=44.537838, lon.=34.274479, Alt.=119.467834m. Speed=0.144000m/h.</desc>
<speed>0.040000</speed>
</trkpt>
<trkpt lat="44.537395" lon="34.273525">
<ele>26.1</ele>
<time>2011-10-13T07:26:07Z</time>
<desc>lat.=44.537395, lon.=34.273525, Alt.=44.548370m. Speed=0.072000m/h.</desc>
<speed>0.020000</speed>
</trkpt>
<trkpt lat="44.538441" lon="34.273365">
<ele>32.2</ele>
<time>2011-10-13T07:30:27Z</time>
<desc>lat.=44.538441, lon.=34.273365, Alt.=44.635284m. Speed=9.864000m/h.</desc>
<speed>2.740000</speed>
</trkpt>
<trkpt lat="44.539032" lon="34.272968">
<ele>37.2</ele>
<time>2011-10-13T07:30:52Z</time>
<desc>lat.=44.539032, lon.=34.272968, Alt.=58.774933m. Speed=7.704000m/h.</desc>
<speed>2.140000</speed>
</trkpt>
<trkpt lat="44.539474" lon="34.272282">
<ele>43.9</ele>
<time>2011-10-13T07:31:42Z</time>
<desc>lat.=44.539474, lon.=34.272282, Alt.=69.165100m. Speed=0.468000m/h.</desc>
<speed>0.130000</speed>
</trkpt>
<trkpt lat="44.540150" lon="34.272514">
<ele>52.3</ele>
<time>2011-10-13T07:32:42Z</time>
<desc>lat.=44.540150, lon.=34.272514, Alt.=72.690491m. Speed=6.444000m/h.</desc>
<speed>1.790000</speed>
</trkpt>
<trkpt lat="44.540894" lon="34.271946">
<ele>65.9</ele>
<time>2011-10-13T07:33:22Z</time>
<desc>lat.=44.540894, lon.=34.271946, Alt.=74.981506m. Speed=7.020000m/h.</desc>
<speed>1.950000</speed>
</trkpt>
<trkpt lat="44.540730" lon="34.271534">
<ele>69.1</ele>
<time>2011-10-13T07:33:42Z</time>
<desc>lat.=44.540730, lon.=34.271534, Alt.=76.684631m. Speed=3.996000m/h.</desc>
<speed>1.110000</speed>
</trkpt>
<trkpt lat="44.539810" lon="34.270523">
<ele>82.2</ele>
<time>2011-10-13T07:34:37Z</time>
<desc>lat.=44.539810, lon.=34.270523, Alt.=79.977600m. Speed=6.984000m/h.</desc>
<speed>1.940000</speed>
</trkpt>
<trkpt lat="44.539459" lon="34.270531">
<ele>89.0</ele>
<time>2011-10-13T07:35:07Z</time>
<desc>lat.=44.539459, lon.=34.270531, Alt.=75.577209m. Speed=0.072000m/h.</desc>
<speed>0.020000</speed>
</trkpt>
<trkpt lat="44.539143" lon="34.270798">
<ele>84.8</ele>
<time>2011-10-13T07:36:27Z</time>
<desc>lat.=44.539143, lon.=34.270798, Alt.=79.786194m. Speed=7.776000m/h.</desc>
<speed>2.160000</speed>
</trkpt>
<trkpt lat="44.538761" lon="34.270668">
<ele>80.9</ele>
<time>2011-10-13T07:36:42Z</time>
<desc>lat.=44.538761, lon.=34.270668, Alt.=82.237366m. Speed=8.604000m/h.</desc>
<speed>2.390000</speed>
</trkpt>
<trkpt lat="44.538647" lon="34.270226">
<ele>85.8</ele>
<time>2011-10-13T07:37:02Z</time>
<desc>lat.=44.538647, lon.=34.270226, Alt.=86.272522m. Speed=6.228000m/h.</desc>
<speed>1.730000</speed>
</trkpt>
<trkpt lat="44.538780" lon="34.269684">
<ele>101.3</ele>
<time>2011-10-13T07:37:27Z</time>
<desc>lat.=44.538780, lon.=34.269684, Alt.=101.737366m. Speed=9.108000m/h.</desc>
<speed>2.530000</speed>
</trkpt>
<trkpt lat="44.539570" lon="34.269173">
<ele>108.1</ele>
<time>2011-10-13T07:38:07Z</time>
<desc>lat.=44.539570, lon.=34.269173, Alt.=114.969788m. Speed=6.300000m/h.</desc>
<speed>1.750000</speed>
</trkpt>
<trkpt lat="44.539383" lon="34.268997">
<ele>109.6</ele>
<time>2011-10-13T07:38:22Z</time>
<desc>lat.=44.539383, lon.=34.268997, Alt.=117.012756m. Speed=7.452000m/h.</desc>
<speed>2.070000</speed>
</trkpt>
<trkpt lat="44.538658" lon="34.269012">
<ele>110.4</ele>
<time>2011-10-13T07:38:52Z</time>
<desc>lat.=44.538658, lon.=34.269012, Alt.=120.047913m. Speed=12.600000m/h.</desc>
<speed>3.500000</speed>
</trkpt>
<trkpt lat="44.537880" lon="34.268608">
<ele>117.5</ele>
<time>2011-10-13T07:39:22Z</time>
<desc>lat.=44.537880, lon.=34.268608, Alt.=120.210022m. Speed=11.628000m/h.</desc>
<speed>3.230000</speed>
</trkpt>
<trkpt lat="44.537201" lon="34.267685">
<ele>130.8</ele>
<time>2011-10-13T07:40:12Z</time>
<desc>lat.=44.537201, lon.=34.267685, Alt.=133.947388m. Speed=6.516000m/h.</desc>
<speed>1.810000</speed>
</trkpt>
<trkpt lat="44.537285" lon="34.267231">
<ele>134.7</ele>
<time>2011-10-13T07:40:32Z</time>
<desc>lat.=44.537285, lon.=34.267231, Alt.=139.334106m. Speed=5.976000m/h.</desc>
<speed>1.660000</speed>
</trkpt>
<trkpt lat="44.539371" lon="34.267044">
<ele>152.7</ele>
<time>2011-10-13T07:42:32Z</time>
<desc>lat.=44.539371, lon.=34.267044, Alt.=163.732544m. Speed=5.796000m/h.</desc>
<speed>1.610000</speed>
</trkpt>
<trkpt lat="44.539555" lon="34.266415">
<ele>165.9</ele>
<time>2011-10-13T07:43:12Z</time>
<desc>lat.=44.539555, lon.=34.266415, Alt.=170.603638m. Speed=6.012000m/h.</desc>
<speed>1.670000</speed>
</trkpt>
<trkpt lat="44.540207" lon="34.266014">
<ele>169.6</ele>
<time>2011-10-13T07:43:57Z</time>
<desc>lat.=44.540207, lon.=34.266014, Alt.=182.564575m. Speed=5.904000m/h.</desc>
<speed>1.640000</speed>
</trkpt>
<trkpt lat="44.540627" lon="34.266037">
<ele>171.7</ele>
<time>2011-10-13T07:44:22Z</time>
<desc>lat.=44.540627, lon.=34.266037, Alt.=181.748169m. Speed=7.452000m/h.</desc>
<speed>2.070000</speed>
</trkpt>
<trkpt lat="44.541031" lon="34.266438">
<ele>168.4</ele>
<time>2011-10-13T07:44:47Z</time>
<desc>lat.=44.541031, lon.=34.266438, Alt.=178.783325m. Speed=7.236000m/h.</desc>
<speed>2.010000</speed>
</trkpt>
<trkpt lat="44.542652" lon="34.266380">
<ele>172.9</ele>
<time>2011-10-13T07:48:22Z</time>
<desc>lat.=44.542652, lon.=34.266380, Alt.=180.353638m. Speed=18.216000m/h.</desc>
<speed>5.060000</speed>
</trkpt>
<trkpt lat="44.543201" lon="34.266003">
<ele>174.1</ele>
<time>2011-10-13T07:48:42Z</time>
<desc>lat.=44.543201, lon.=34.266003, Alt.=170.009888m. Speed=1.548000m/h.</desc>
<speed>0.430000</speed>
</trkpt>
<trkpt lat="44.543907" lon="34.264874">
<ele>170.9</ele>
<time>2011-10-13T07:49:12Z</time>
<desc>lat.=44.543907, lon.=34.264874, Alt.=168.236450m. Speed=11.556000m/h.</desc>
<speed>3.210000</speed>
</trkpt>
<trkpt lat="44.545944" lon="34.264359">
<ele>167.7</ele>
<time>2011-10-13T07:49:57Z</time>
<desc>lat.=44.545944, lon.=34.264359, Alt.=169.923950m. Speed=22.860001m/h.</desc>
<speed>6.350000</speed>
</trkpt>
<trkpt lat="44.549263" lon="34.265579">
<ele>149.1</ele>
<time>2011-10-13T07:50:52Z</time>
<desc>lat.=44.549263, lon.=34.265579, Alt.=162.705200m. Speed=21.672001m/h.</desc>
<speed>6.020000</speed>
</trkpt>
<trkpt lat="44.549789" lon="34.266216">
<ele>156.2</ele>
<time>2011-10-13T07:51:07Z</time>
<desc>lat.=44.549789, lon.=34.266216, Alt.=163.744263m. Speed=15.444000m/h.</desc>
<speed>4.290000</speed>
</trkpt>
<trkpt lat="44.550514" lon="34.268105">
<ele>174.0</ele>
<time>2011-10-13T07:55:07Z</time>
<desc>lat.=44.550514, lon.=34.268105, Alt.=166.689575m. Speed=0.252000m/h.</desc>
<speed>0.070000</speed>
</trkpt>
<trkpt lat="44.550343" lon="34.267719">
<ele>170.9</ele>
<time>2011-10-13T07:55:27Z</time>
<desc>lat.=44.550343, lon.=34.267719, Alt.=165.392700m. Speed=10.476000m/h.</desc>
<speed>2.910000</speed>
</trkpt>
<trkpt lat="44.550293" lon="34.266891">
<ele>169.7</ele>
<time>2011-10-13T07:55:42Z</time>
<desc>lat.=44.550293, lon.=34.266891, Alt.=162.615356m. Speed=27.792000m/h.</desc>
<speed>7.720000</speed>
</trkpt>
<trkpt lat="44.550419" lon="34.264511">
<ele>166.9</ele>
<time>2011-10-13T07:56:12Z</time>
<desc>lat.=44.550419, lon.=34.264511, Alt.=159.994263m. Speed=13.284000m/h.</desc>
<speed>3.690000</speed>
</trkpt>
<trkpt lat="44.550278" lon="34.264511">
<ele>166.7</ele>
<time>2011-10-13T07:56:17Z</time>
<desc>lat.=44.550278, lon.=34.264511, Alt.=159.115356m. Speed=14.364000m/h.</desc>
<speed>3.990000</speed>
</trkpt>
<trkpt lat="44.550018" lon="34.265030">
<ele>161.7</ele>
<time>2011-10-13T07:56:27Z</time>
<desc>lat.=44.550018, lon.=34.265030, Alt.=156.033325m. Speed=15.516000m/h.</desc>
<speed>4.310000</speed>
</trkpt>
<trkpt lat="44.549942" lon="34.265816">
<ele>161.1</ele>
<time>2011-10-13T07:56:37Z</time>
<desc>lat.=44.549942, lon.=34.265816, Alt.=149.302856m. Speed=29.375999m/h.</desc>
<speed>8.160000</speed>
</trkpt>
<trkpt lat="44.549290" lon="34.268234">
<ele>139.5</ele>
<time>2011-10-13T07:57:02Z</time>
<desc>lat.=44.549290, lon.=34.268234, Alt.=126.711975m. Speed=15.120000m/h.</desc>
<speed>4.200000</speed>
</trkpt>
<trkpt lat="44.548721" lon="34.267551">
<ele>127.1</ele>
<time>2011-10-13T07:57:17Z</time>
<desc>lat.=44.548721, lon.=34.267551, Alt.=118.106506m. Speed=23.688000m/h.</desc>
<speed>6.580000</speed>
</trkpt>
<trkpt lat="44.548431" lon="34.267712">
<ele>123.8</ele>
<time>2011-10-13T07:57:22Z</time>
<desc>lat.=44.548431, lon.=34.267712, Alt.=112.559631m. Speed=25.200001m/h.</desc>
<speed>7.000000</speed>
</trkpt>
<trkpt lat="44.547924" lon="34.269478">
<ele>106.7</ele>
<time>2011-10-13T07:57:42Z</time>
<desc>lat.=44.547924, lon.=34.269478, Alt.=98.657288m. Speed=29.232000m/h.</desc>
<speed>8.120000</speed>
</trkpt>
<trkpt lat="44.547848" lon="34.271072">
<ele>101.8</ele>
<time>2011-10-13T07:58:02Z</time>
<desc>lat.=44.547848, lon.=34.271072, Alt.=87.987366m. Speed=10.980000m/h.</desc>
<speed>3.050000</speed>
</trkpt>
<trkpt lat="44.547676" lon="34.270973">
<ele>97.8</ele>
<time>2011-10-13T07:58:07Z</time>
<desc>lat.=44.547676, lon.=34.270973, Alt.=87.700256m. Speed=21.132000m/h.</desc>
<speed>5.870000</speed>
</trkpt>
<trkpt lat="44.547550" lon="34.270531">
<ele>92.1</ele>
<time>2011-10-13T07:58:12Z</time>
<desc>lat.=44.547550, lon.=34.270531, Alt.=85.108459m. Speed=29.268000m/h.</desc>
<speed>8.130000</speed>
</trkpt>
<trkpt lat="44.547504" lon="34.269695">
<ele>88.8</ele>
<time>2011-10-13T07:58:22Z</time>
<desc>lat.=44.547504, lon.=34.269695, Alt.=81.579163m. Speed=17.028000m/h.</desc>
<speed>4.730000</speed>
</trkpt>
<trkpt lat="44.547314" lon="34.269600">
<ele>83.9</ele>
<time>2011-10-13T07:58:27Z</time>
<desc>lat.=44.547314, lon.=34.269600, Alt.=81.866272m. Speed=19.764000m/h.</desc>
<speed>5.490000</speed>
</trkpt>
<trkpt lat="44.546631" lon="34.270782">
<ele>71.4</ele>
<time>2011-10-13T07:58:42Z</time>
<desc>lat.=44.546631, lon.=34.270782, Alt.=70.575256m. Speed=26.208000m/h.</desc>
<speed>7.280000</speed>
</trkpt>
<trkpt lat="44.546249" lon="34.272415">
<ele>53.7</ele>
<time>2011-10-13T08:01:22Z</time>
<desc>lat.=44.546249, lon.=34.272415, Alt.=49.409698m. Speed=19.656000m/h.</desc>
<speed>5.460000</speed>
</trkpt>
<trkpt lat="44.544758" lon="34.274033">
<ele>38.3</ele>
<time>2011-10-13T08:01:42Z</time>
<desc>lat.=44.544758, lon.=34.274033, Alt.=33.991730m. Speed=33.911999m/h.</desc>
<speed>9.420000</speed>
</trkpt>
<trkpt lat="44.544415" lon="34.274963">
<ele>36.5</ele>
<time>2011-10-13T08:01:52Z</time>
<desc>lat.=44.544415, lon.=34.274963, Alt.=29.986588m. Speed=25.488001m/h.</desc>
<speed>7.080000</speed>
</trkpt>
<trkpt lat="44.544052" lon="34.277431">
<ele>37.1</ele>
<time>2011-10-13T08:02:32Z</time>
<desc>lat.=44.544052, lon.=34.277431, Alt.=23.476822m. Speed=18.864000m/h.</desc>
<speed>5.240000</speed>
</trkpt>
<trkpt lat="44.543816" lon="34.278217">
<ele>36.0</ele>
<time>2011-10-13T08:02:47Z</time>
<desc>lat.=44.543816, lon.=34.278217, Alt.=24.705338m. Speed=8.388000m/h.</desc>
<speed>2.330000</speed>
</trkpt>
<trkpt lat="44.543087" lon="34.279202">
<ele>27.9</ele>
<time>2011-10-13T08:03:22Z</time>
<desc>lat.=44.543087, lon.=34.279202, Alt.=27.795670m. Speed=1.764000m/h.</desc>
<speed>0.490000</speed>
</trkpt>
<trkpt lat="44.543114" lon="34.279514">
<ele>26.2</ele>
<time>2011-10-13T08:04:42Z</time>
<desc>lat.=44.543114, lon.=34.279514, Alt.=26.813736m. Speed=5.292000m/h.</desc>
<speed>1.470000</speed>
</trkpt>
<trkpt lat="44.542732" lon="34.279102">
<ele>21.3</ele>
<time>2011-10-13T08:05:07Z</time>
<desc>lat.=44.542732, lon.=34.279102, Alt.=19.287857m. Speed=5.868000m/h.</desc>
<speed>1.630000</speed>
</trkpt>
<trkpt lat="44.542553" lon="34.279423">
<ele>8.2</ele>
<time>2011-10-13T08:05:17Z</time>
<desc>lat.=44.542553, lon.=34.279423, Alt.=15.918587m. Speed=7.956000m/h.</desc>
<speed>2.210000</speed>
</trkpt>
<trkpt lat="44.541870" lon="34.278801">
<ele>1.5</ele>
<time>2011-10-13T08:05:32Z</time>
<desc>lat.=44.541870, lon.=34.278801, Alt.=8.999153m. Speed=24.011999m/h.</desc>
<speed>6.670000</speed>
</trkpt>
<trkpt lat="44.540905" lon="34.277172">
<ele>2.9</ele>
<time>2011-10-13T08:05:57Z</time>
<desc>lat.=44.540905, lon.=34.277172, Alt.=-0.855523m. Speed=26.459999m/h.</desc>
<speed>7.350000</speed>
</trkpt>
<trkpt lat="44.539875" lon="34.275871">
<ele>3.3</ele>
<time>2011-10-13T08:06:17Z</time>
<desc>lat.=44.539875, lon.=34.275871, Alt.=1.025437m. Speed=30.743999m/h.</desc>
<speed>8.540000</speed>
</trkpt>
<trkpt lat="44.536827" lon="34.274254">
<ele>3.1</ele>
<time>2011-10-13T08:07:07Z</time>
<desc>lat.=44.536827, lon.=34.274254, Alt.=8.835335m. Speed=15.264000m/h.</desc>
<speed>4.240000</speed>
</trkpt>
<trkpt lat="44.536942" lon="34.273891">
<ele>9.0</ele>
<time>2011-10-13T08:07:32Z</time>
<desc>lat.=44.536942, lon.=34.273891, Alt.=16.425552m. Speed=0.360000m/h.</desc>
<speed>0.100000</speed>
</trkpt>
<trkpt lat="44.536972" lon="34.274380">
<ele>2.5</ele>
<time>2011-10-13T08:12:37Z</time>
<desc>lat.=44.536972, lon.=34.274380, Alt.=12.879280m. Speed=12.672000m/h.</desc>
<speed>3.520000</speed>
</trkpt>
<trkpt lat="44.539883" lon="34.275963">
<ele>2.5</ele>
<time>2011-10-13T08:13:27Z</time>
<desc>lat.=44.539883, lon.=34.275963, Alt.=12.313850m. Speed=24.444000m/h.</desc>
<speed>6.790000</speed>
</trkpt>
<trkpt lat="44.542442" lon="34.279331">
<ele>6.4</ele>
<time>2011-10-13T08:14:37Z</time>
<desc>lat.=44.542442, lon.=34.279331, Alt.=33.383331m. Speed=9.540000m/h.</desc>
<speed>2.650000</speed>
</trkpt>
<trkpt lat="44.542698" lon="34.279030">
<ele>21.2</ele>
<time>2011-10-13T08:14:57Z</time>
<desc>lat.=44.542698, lon.=34.279030, Alt.=43.379425m. Speed=6.984000m/h.</desc>
<speed>1.940000</speed>
</trkpt>
<trkpt lat="44.542767" lon="34.279316">
<ele>18.5</ele>
<time>2011-10-13T08:15:12Z</time>
<desc>lat.=44.542767, lon.=34.279316, Alt.=44.900909m. Speed=5.832000m/h.</desc>
<speed>1.620000</speed>
</trkpt>
<trkpt lat="44.542919" lon="34.279350">
<ele>23.3</ele>
<time>2011-10-13T08:15:17Z</time>
<desc>lat.=44.542919, lon.=34.279350, Alt.=46.945831m. Speed=9.324000m/h.</desc>
<speed>2.590000</speed>
</trkpt>
<trkpt lat="44.542873" lon="34.281158">
<ele>23.2</ele>
<time>2011-10-13T08:16:07Z</time>
<desc>lat.=44.542873, lon.=34.281158, Alt.=62.533722m. Speed=10.044000m/h.</desc>
<speed>2.790000</speed>
</trkpt>
<trkpt lat="44.543041" lon="34.282120">
<ele>39.1</ele>
<time>2011-10-13T08:16:37Z</time>
<desc>lat.=44.543041, lon.=34.282120, Alt.=58.989777m. Speed=10.476000m/h.</desc>
<speed>2.910000</speed>
</trkpt>
<trkpt lat="44.544849" lon="34.284763">
<ele>40.4</ele>
<time>2011-10-13T08:17:37Z</time>
<desc>lat.=44.544849, lon.=34.284763, Alt.=53.101105m. Speed=21.708000m/h.</desc>
<speed>6.030000</speed>
</trkpt>
<trkpt lat="44.546459" lon="34.285378">
<ele>39.6</ele>
<time>2011-10-13T08:18:02Z</time>
<desc>lat.=44.546459, lon.=34.285378, Alt.=39.736847m. Speed=22.500000m/h.</desc>
<speed>6.250000</speed>
</trkpt>
<trkpt lat="44.546562" lon="34.285675">
<ele>40.5</ele>
<time>2011-10-13T08:18:07Z</time>
<desc>lat.=44.546562, lon.=34.285675, Alt.=40.980011m. Speed=17.568001m/h.</desc>
<speed>4.880000</speed>
</trkpt>
<trkpt lat="44.546490" lon="34.286400">
<ele>37.3</ele>
<time>2011-10-13T08:18:17Z</time>
<desc>lat.=44.546490, lon.=34.286400, Alt.=44.302277m. Speed=21.708000m/h.</desc>
<speed>6.030000</speed>
</trkpt>
<trkpt lat="44.546680" lon="34.287037">
<ele>39.5</ele>
<time>2011-10-13T08:18:27Z</time>
<desc>lat.=44.546680, lon.=34.287037, Alt.=46.499542m. Speed=16.775999m/h.</desc>
<speed>4.660000</speed>
</trkpt>
<trkpt lat="44.547821" lon="34.289288">
<ele>68.5</ele>
<time>2011-10-13T08:19:32Z</time>
<desc>lat.=44.547821, lon.=34.289288, Alt.=64.698303m. Speed=10.296000m/h.</desc>
<speed>2.860000</speed>
</trkpt>
<trkpt lat="44.548088" lon="34.290119">
<ele>70.8</ele>
<time>2011-10-13T08:19:57Z</time>
<desc>lat.=44.548088, lon.=34.290119, Alt.=72.653381m. Speed=10.512000m/h.</desc>
<speed>2.920000</speed>
</trkpt>
<trkpt lat="44.548260" lon="34.290394">
<ele>72.4</ele>
<time>2011-10-13T08:20:07Z</time>
<desc>lat.=44.548260, lon.=34.290394, Alt.=76.098694m. Speed=7.488000m/h.</desc>
<speed>2.080000</speed>
</trkpt>
<trkpt lat="44.548748" lon="34.290604">
<ele>72.0</ele>
<time>2011-10-13T08:20:22Z</time>
<desc>lat.=44.548748, lon.=34.290604, Alt.=74.415100m. Speed=12.996000m/h.</desc>
<speed>3.610000</speed>
</trkpt>
<trkpt lat="44.549007" lon="34.291016">
<ele>68.9</ele>
<time>2011-10-13T08:20:32Z</time>
<desc>lat.=44.549007, lon.=34.291016, Alt.=75.456116m. Speed=18.972000m/h.</desc>
<speed>5.270000</speed>
</trkpt>
<trkpt lat="44.549393" lon="34.293140">
<ele>63.3</ele>
<time>2011-10-13T08:20:52Z</time>
<desc>lat.=44.549393, lon.=34.293140, Alt.=63.446808m. Speed=37.728001m/h.</desc>
<speed>10.480000</speed>
</trkpt>
<trkpt lat="44.550571" lon="34.295631">
<ele>45.2</ele>
<time>2011-10-13T08:21:12Z</time>
<desc>lat.=44.550571, lon.=34.295631, Alt.=50.349152m. Speed=36.647999m/h.</desc>
<speed>10.180000</speed>
</trkpt>
<trkpt lat="44.550686" lon="34.296192">
<ele>47.6</ele>
<time>2011-10-13T08:21:17Z</time>
<desc>lat.=44.550686, lon.=34.296192, Alt.=48.497589m. Speed=30.420000m/h.</desc>
<speed>8.450000</speed>
</trkpt>
<trkpt lat="44.550510" lon="34.296967">
<ele>46.5</ele>
<time>2011-10-13T08:21:27Z</time>
<desc>lat.=44.550510, lon.=34.296967, Alt.=49.896027m. Speed=19.584000m/h.</desc>
<speed>5.440000</speed>
</trkpt>
<trkpt lat="44.551403" lon="34.298157">
<ele>57.6</ele>
<time>2011-10-13T08:21:57Z</time>
<desc>lat.=44.551403, lon.=34.298157, Alt.=57.436066m. Speed=17.208000m/h.</desc>
<speed>4.780000</speed>
</trkpt>
<trkpt lat="44.551460" lon="34.298752">
<ele>55.4</ele>
<time>2011-10-13T08:22:07Z</time>
<desc>lat.=44.551460, lon.=34.298752, Alt.=62.188019m. Speed=15.840000m/h.</desc>
<speed>4.400000</speed>
</trkpt>
<trkpt lat="44.551643" lon="34.298992">
<ele>57.8</ele>
<time>2011-10-13T08:22:12Z</time>
<desc>lat.=44.551643, lon.=34.298992, Alt.=63.172394m. Speed=18.072001m/h.</desc>
<speed>5.020000</speed>
</trkpt>
<trkpt lat="44.552509" lon="34.298920">
<ele>65.8</ele>
<time>2011-10-13T08:22:32Z</time>
<desc>lat.=44.552509, lon.=34.298920, Alt.=66.637756m. Speed=14.832000m/h.</desc>
<speed>4.120000</speed>
</trkpt>
<trkpt lat="44.553532" lon="34.299183">
<ele>69.7</ele>
<time>2011-10-13T08:23:02Z</time>
<desc>lat.=44.553532, lon.=34.299183, Alt.=79.874084m. Speed=14.868000m/h.</desc>
<speed>4.130000</speed>
</trkpt>
<trkpt lat="44.553871" lon="34.298862">
<ele>75.0</ele>
<time>2011-10-13T08:23:17Z</time>
<desc>lat.=44.553871, lon.=34.298862, Alt.=78.719788m. Speed=4.968000m/h.</desc>
<speed>1.380000</speed>
</trkpt>
<trkpt lat="44.552814" lon="34.297375">
<ele>80.4</ele>
<time>2011-10-13T09:02:52Z</time>
<desc>lat.=44.552814, lon.=34.297375, Alt.=78.083069m. Speed=5.724000m/h.</desc>
<speed>1.590000</speed>
</trkpt>
<trkpt lat="44.553333" lon="34.296471">
<ele>90.3</ele>
<time>2011-10-13T09:03:52Z</time>
<desc>lat.=44.553333, lon.=34.296471, Alt.=87.956116m. Speed=4.752000m/h.</desc>
<speed>1.320000</speed>
</trkpt>
<trkpt lat="44.553547" lon="34.295406">
<ele>105.5</ele>
<time>2011-10-13T09:04:47Z</time>
<desc>lat.=44.553547, lon.=34.295406, Alt.=105.323303m. Speed=6.660000m/h.</desc>
<speed>1.850000</speed>
</trkpt>
<trkpt lat="44.552765" lon="34.293388">
<ele>113.1</ele>
<time>2011-10-13T09:06:07Z</time>
<desc>lat.=44.552765, lon.=34.293388, Alt.=108.491272m. Speed=5.832000m/h.</desc>
<speed>1.620000</speed>
</trkpt>
<trkpt lat="44.553249" lon="34.292385">
<ele>126.5</ele>
<time>2011-10-13T09:07:02Z</time>
<desc>lat.=44.553249, lon.=34.292385, Alt.=123.190491m. Speed=6.768000m/h.</desc>
<speed>1.880000</speed>
</trkpt>
<trkpt lat="44.553493" lon="34.291191">
<ele>136.2</ele>
<time>2011-10-13T09:07:52Z</time>
<desc>lat.=44.553493, lon.=34.291191, Alt.=131.974731m. Speed=7.776000m/h.</desc>
<speed>2.160000</speed>
</trkpt>
<trkpt lat="44.553745" lon="34.290825">
<ele>142.3</ele>
<time>2011-10-13T09:08:12Z</time>
<desc>lat.=44.553745, lon.=34.290825, Alt.=134.814575m. Speed=6.300000m/h.</desc>
<speed>1.750000</speed>
</trkpt>
<trkpt lat="44.554649" lon="34.290550">
<ele>151.2</ele>
<time>2011-10-13T09:09:07Z</time>
<desc>lat.=44.554649, lon.=34.290550, Alt.=147.369263m. Speed=4.392000m/h.</desc>
<speed>1.220000</speed>
</trkpt>
<trkpt lat="44.555355" lon="34.289688">
<ele>162.8</ele>
<time>2011-10-13T09:10:02Z</time>
<desc>lat.=44.555355, lon.=34.289688, Alt.=158.384888m. Speed=4.284000m/h.</desc>
<speed>1.190000</speed>
</trkpt>
<trkpt lat="44.555618" lon="34.289581">
<ele>165.9</ele>
<time>2011-10-13T09:10:22Z</time>
<desc>lat.=44.555618, lon.=34.289581, Alt.=160.892700m. Speed=5.400000m/h.</desc>
<speed>1.500000</speed>
</trkpt>
<trkpt lat="44.558071" lon="34.291100">
<ele>195.8</ele>
<time>2011-10-13T09:13:37Z</time>
<desc>lat.=44.558071, lon.=34.291100, Alt.=187.521606m. Speed=5.868000m/h.</desc>
<speed>1.630000</speed>
</trkpt>
<trkpt lat="44.559151" lon="34.291115">
<ele>205.1</ele>
<time>2011-10-13T09:14:47Z</time>
<desc>lat.=44.559151, lon.=34.291115, Alt.=197.591919m. Speed=6.192000m/h.</desc>
<speed>1.720000</speed>
</trkpt>
<trkpt lat="44.559658" lon="34.290874">
<ele>211.2</ele>
<time>2011-10-13T09:15:27Z</time>
<desc>lat.=44.559658, lon.=34.290874, Alt.=203.334106m. Speed=6.804000m/h.</desc>
<speed>1.890000</speed>
</trkpt>
<trkpt lat="44.557621" lon="34.283657">
<ele>233.0</ele>
<time>2011-10-13T09:22:22Z</time>
<desc>lat.=44.557621, lon.=34.283657, Alt.=229.927856m. Speed=14.616000m/h.</desc>
<speed>4.060000</speed>
</trkpt>
<trkpt lat="44.557285" lon="34.279610">
<ele>235.0</ele>
<time>2011-10-13T09:23:32Z</time>
<desc>lat.=44.557285, lon.=34.279610, Alt.=220.705200m. Speed=28.403999m/h.</desc>
<speed>7.890000</speed>
</trkpt>
<trkpt lat="44.557110" lon="34.279064">
<ele>231.9</ele>
<time>2011-10-13T09:23:37Z</time>
<desc>lat.=44.557110, lon.=34.279064, Alt.=220.228638m. Speed=38.411999m/h.</desc>
<speed>10.670000</speed>
</trkpt>
<trkpt lat="44.556480" lon="34.277752">
<ele>223.2</ele>
<time>2011-10-13T09:23:47Z</time>
<desc>lat.=44.556480, lon.=34.277752, Alt.=217.459106m. Speed=49.464001m/h.</desc>
<speed>13.740000</speed>
</trkpt>
<trkpt lat="44.554245" lon="34.275421">
<ele>206.0</ele>
<time>2011-10-13T09:24:12Z</time>
<desc>lat.=44.554245, lon.=34.275421, Alt.=201.802856m. Speed=38.231998m/h.</desc>
<speed>10.620000</speed>
</trkpt>
<trkpt lat="44.554081" lon="34.274899">
<ele>200.7</ele>
<time>2011-10-13T09:24:17Z</time>
<desc>lat.=44.554081, lon.=34.274899, Alt.=199.005981m. Speed=28.476000m/h.</desc>
<speed>7.910000</speed>
</trkpt>
<trkpt lat="44.553745" lon="34.271553">
<ele>196.9</ele>
<time>2011-10-13T09:25:57Z</time>
<desc>lat.=44.553745, lon.=34.271553, Alt.=187.978638m. Speed=26.927999m/h.</desc>
<speed>7.480000</speed>
</trkpt>
<trkpt lat="44.553261" lon="34.269623">
<ele>188.2</ele>
<time>2011-10-13T09:26:17Z</time>
<desc>lat.=44.553261, lon.=34.269623, Alt.=178.111450m. Speed=22.247999m/h.</desc>
<speed>6.180000</speed>
</trkpt>
<trkpt lat="44.552727" lon="34.269028">
<ele>180.6</ele>
<time>2011-10-13T09:26:27Z</time>
<desc>lat.=44.552727, lon.=34.269028, Alt.=177.377075m. Speed=30.851999m/h.</desc>
<speed>8.570000</speed>
</trkpt>
<trkpt lat="44.551563" lon="34.268871">
<ele>182.3</ele>
<time>2011-10-13T09:26:42Z</time>
<desc>lat.=44.551563, lon.=34.268871, Alt.=172.392700m. Speed=31.356001m/h.</desc>
<speed>8.710000</speed>
</trkpt>
<trkpt lat="44.550850" lon="34.268459">
<ele>178.1</ele>
<time>2011-10-13T09:26:52Z</time>
<desc>lat.=44.550850, lon.=34.268459, Alt.=168.021606m. Speed=30.528000m/h.</desc>
<speed>8.480000</speed>
</trkpt>
<trkpt lat="44.549805" lon="34.265942">
<ele>158.6</ele>
<time>2011-10-13T09:27:17Z</time>
<desc>lat.=44.549805, lon.=34.265942, Alt.=155.377075m. Speed=33.804001m/h.</desc>
<speed>9.390000</speed>
</trkpt>
<trkpt lat="44.549503" lon="34.265549">
<ele>153.6</ele>
<time>2011-10-13T09:27:22Z</time>
<desc>lat.=44.549503, lon.=34.265549, Alt.=154.627075m. Speed=32.112000m/h.</desc>
<speed>8.920000</speed>
</trkpt>
<trkpt lat="44.545769" lon="34.264137">
<ele>172.3</ele>
<time>2011-10-13T09:28:32Z</time>
<desc>lat.=44.545769, lon.=34.264137, Alt.=159.091919m. Speed=14.184000m/h.</desc>
<speed>3.940000</speed>
</trkpt>
<trkpt lat="44.542522" lon="34.265137">
<ele>188.2</ele>
<time>2011-10-13T09:30:12Z</time>
<desc>lat.=44.542522, lon.=34.265137, Alt.=177.267700m. Speed=10.764000m/h.</desc>
<speed>2.990000</speed>
</trkpt>
<trkpt lat="44.541405" lon="34.265034">
<ele>188.6</ele>
<time>2011-10-13T09:30:57Z</time>
<desc>lat.=44.541405, lon.=34.265034, Alt.=183.154419m. Speed=9.936000m/h.</desc>
<speed>2.760000</speed>
</trkpt>
<trkpt lat="44.530968" lon="34.259106">
<ele>211.1</ele>
<time>2011-10-13T09:35:57Z</time>
<desc>lat.=44.530968, lon.=34.259106, Alt.=206.088013m. Speed=19.152000m/h.</desc>
<speed>5.320000</speed>
</trkpt>
<trkpt lat="44.530025" lon="34.258270">
<ele>216.5</ele>
<time>2011-10-13T09:37:02Z</time>
<desc>lat.=44.530025, lon.=34.258270, Alt.=201.490356m. Speed=10.440000m/h.</desc>
<speed>2.900000</speed>
</trkpt>
<trkpt lat="44.528725" lon="34.256588">
<ele>221.7</ele>
<time>2011-10-13T09:37:52Z</time>
<desc>lat.=44.528725, lon.=34.256588, Alt.=209.627075m. Speed=18.719999m/h.</desc>
<speed>5.200000</speed>
</trkpt>
<trkpt lat="44.527763" lon="34.255695">
<ele>226.9</ele>
<time>2011-10-13T09:38:22Z</time>
<desc>lat.=44.527763, lon.=34.255695, Alt.=214.314575m. Speed=17.388000m/h.</desc>
<speed>4.830000</speed>
</trkpt>
<trkpt lat="44.524952" lon="34.254608">
<ele>219.3</ele>
<time>2011-10-13T09:39:12Z</time>
<desc>lat.=44.524952, lon.=34.254608, Alt.=210.595825m. Speed=34.416000m/h.</desc>
<speed>9.560000</speed>
</trkpt>
<trkpt lat="44.521965" lon="34.252525">
<ele>221.5</ele>
<time>2011-10-13T09:40:02Z</time>
<desc>lat.=44.521965, lon.=34.252525, Alt.=215.693481m. Speed=12.600000m/h.</desc>
<speed>3.500000</speed>
</trkpt>
<trkpt lat="44.519291" lon="34.252449">
<ele>227.8</ele>
<time>2011-10-13T09:41:17Z</time>
<desc>lat.=44.519291, lon.=34.252449, Alt.=226.771606m. Speed=15.624000m/h.</desc>
<speed>4.340000</speed>
</trkpt>
<trkpt lat="44.518631" lon="34.251858">
<ele>229.2</ele>
<time>2011-10-13T09:41:32Z</time>
<desc>lat.=44.518631, lon.=34.251858, Alt.=225.373169m. Speed=21.348000m/h.</desc>
<speed>5.930000</speed>
</trkpt>
<trkpt lat="44.518169" lon="34.250961">
<ele>229.7</ele>
<time>2011-10-13T09:41:47Z</time>
<desc>lat.=44.518169, lon.=34.250961, Alt.=226.658325m. Speed=16.955999m/h.</desc>
<speed>4.710000</speed>
</trkpt>
<trkpt lat="44.517967" lon="34.250088">
<ele>235.7</ele>
<time>2011-10-13T09:42:02Z</time>
<desc>lat.=44.517967, lon.=34.250088, Alt.=230.127075m. Speed=14.508000m/h.</desc>
<speed>4.030000</speed>
</trkpt>
<trkpt lat="44.517918" lon="34.246986">
<ele>244.2</ele>
<time>2011-10-13T09:43:12Z</time>
<desc>lat.=44.517918, lon.=34.246986, Alt.=238.627075m. Speed=10.080000m/h.</desc>
<speed>2.800000</speed>
</trkpt>
<trkpt lat="44.517578" lon="34.243519">
<ele>255.6</ele>
<time>2011-10-13T09:44:42Z</time>
<desc>lat.=44.517578, lon.=34.243519, Alt.=247.509888m. Speed=11.016000m/h.</desc>
<speed>3.060000</speed>
</trkpt>
<trkpt lat="44.516296" lon="34.238758">
<ele>270.3</ele>
<time>2011-10-13T09:46:42Z</time>
<desc>lat.=44.516296, lon.=34.238758, Alt.=259.293213m. Speed=12.636000m/h.</desc>
<speed>3.510000</speed>
</trkpt>
<trkpt lat="44.517014" lon="34.236656">
<ele>278.7</ele>
<time>2011-10-13T09:47:37Z</time>
<desc>lat.=44.517014, lon.=34.236656, Alt.=261.793213m. Speed=11.628000m/h.</desc>
<speed>3.230000</speed>
</trkpt>
<trkpt lat="44.517212" lon="34.233955">
<ele>285.7</ele>
<time>2011-10-13T09:48:47Z</time>
<desc>lat.=44.517212, lon.=34.233955, Alt.=269.566650m. Speed=9.612000m/h.</desc>
<speed>2.670000</speed>
</trkpt>
<trkpt lat="44.518017" lon="34.229977">
<ele>301.0</ele>
<time>2011-10-13T09:50:32Z</time>
<desc>lat.=44.518017, lon.=34.229977, Alt.=281.238525m. Speed=16.344000m/h.</desc>
<speed>4.540000</speed>
</trkpt>
<trkpt lat="44.518341" lon="34.227188">
<ele>304.5</ele>
<time>2011-10-13T09:51:17Z</time>
<desc>lat.=44.518341, lon.=34.227188, Alt.=280.676025m. Speed=13.716000m/h.</desc>
<speed>3.810000</speed>
</trkpt>
<trkpt lat="44.518291" lon="34.225872">
<ele>306.1</ele>
<time>2011-10-13T09:51:42Z</time>
<desc>lat.=44.518291, lon.=34.225872, Alt.=288.152588m. Speed=12.060000m/h.</desc>
<speed>3.350000</speed>
</trkpt>
<trkpt lat="44.517487" lon="34.222927">
<ele>303.0</ele>
<time>2011-10-13T09:54:22Z</time>
<desc>lat.=44.517487, lon.=34.222927, Alt.=284.918213m. Speed=27.323999m/h.</desc>
<speed>7.590000</speed>
</trkpt>
<trkpt lat="44.515789" lon="34.220814">
<ele>289.8</ele>
<time>2011-10-13T09:54:47Z</time>
<desc>lat.=44.515789, lon.=34.220814, Alt.=273.285400m. Speed=37.980000m/h.</desc>
<speed>10.550000</speed>
</trkpt>
<trkpt lat="44.515556" lon="34.220184">
<ele>288.7</ele>
<time>2011-10-13T09:54:52Z</time>
<desc>lat.=44.515556, lon.=34.220184, Alt.=271.941650m. Speed=42.588001m/h.</desc>
<speed>11.830000</speed>
</trkpt>
<trkpt lat="44.515358" lon="34.218822">
<ele>286.1</ele>
<time>2011-10-13T09:55:02Z</time>
<desc>lat.=44.515358, lon.=34.218822, Alt.=269.957275m. Speed=37.944000m/h.</desc>
<speed>10.540000</speed>
</trkpt>
<trkpt lat="44.515198" lon="34.213955">
<ele>276.5</ele>
<time>2011-10-13T09:55:47Z</time>
<desc>lat.=44.515198, lon.=34.213955, Alt.=259.332275m. Speed=34.200001m/h.</desc>
<speed>9.500000</speed>
</trkpt>
<trkpt lat="44.514801" lon="34.210426">
<ele>275.2</ele>
<time>2011-10-13T09:56:22Z</time>
<desc>lat.=44.514801, lon.=34.210426, Alt.=244.302856m. Speed=27.648001m/h.</desc>
<speed>7.680000</speed>
</trkpt>
<trkpt lat="44.513702" lon="34.206535">
<ele>256.8</ele>
<time>2011-10-13T09:56:57Z</time>
<desc>lat.=44.513702, lon.=34.206535, Alt.=237.029419m. Speed=43.667999m/h.</desc>
<speed>12.130000</speed>
</trkpt>
<trkpt lat="44.512325" lon="34.203381">
<ele>247.7</ele>
<time>2011-10-13T09:57:22Z</time>
<desc>lat.=44.512325, lon.=34.203381, Alt.=231.505981m. Speed=30.132000m/h.</desc>
<speed>8.370000</speed>
</trkpt>
<trkpt lat="44.512325" lon="34.202862">
<ele>247.9</ele>
<time>2011-10-13T09:57:27Z</time>
<desc>lat.=44.512325, lon.=34.202862, Alt.=230.830200m. Speed=28.224001m/h.</desc>
<speed>7.840000</speed>
</trkpt>
<trkpt lat="44.512909" lon="34.200539">
<ele>240.9</ele>
<time>2011-10-13T09:57:52Z</time>
<desc>lat.=44.512909, lon.=34.200539, Alt.=228.537231m. Speed=29.844000m/h.</desc>
<speed>8.290000</speed>
</trkpt>
<trkpt lat="44.512947" lon="34.198170">
<ele>233.9</ele>
<time>2011-10-13T09:58:17Z</time>
<desc>lat.=44.512947, lon.=34.198170, Alt.=221.658325m. Speed=28.044001m/h.</desc>
<speed>7.790000</speed>
</trkpt>
<trkpt lat="44.512726" lon="34.196522">
<ele>227.8</ele>
<time>2011-10-13T09:58:32Z</time>
<desc>lat.=44.512726, lon.=34.196522, Alt.=218.224731m. Speed=36.612000m/h.</desc>
<speed>10.170000</speed>
</trkpt>
<trkpt lat="44.511574" lon="34.193378">
<ele>218.6</ele>
<time>2011-10-13T09:59:02Z</time>
<desc>lat.=44.511574, lon.=34.193378, Alt.=207.228638m. Speed=36.936001m/h.</desc>
<speed>10.260000</speed>
</trkpt>
<trkpt lat="44.509991" lon="34.191120">
<ele>205.3</ele>
<time>2011-10-13T09:59:27Z</time>
<desc>lat.=44.509991, lon.=34.191120, Alt.=193.767700m. Speed=35.712002m/h.</desc>
<speed>9.920001</speed>
</trkpt>
<trkpt lat="44.509499" lon="34.190117">
<ele>207.2</ele>
<time>2011-10-13T09:59:37Z</time>
<desc>lat.=44.509499, lon.=34.190117, Alt.=191.068481m. Speed=32.147999m/h.</desc>
<speed>8.930000</speed>
</trkpt>
<trkpt lat="44.509163" lon="34.188667">
<ele>202.4</ele>
<time>2011-10-13T09:59:52Z</time>
<desc>lat.=44.509163, lon.=34.188667, Alt.=190.541138m. Speed=29.375999m/h.</desc>
<speed>8.160000</speed>
</trkpt>
<trkpt lat="44.508484" lon="34.187630">
<ele>196.3</ele>
<time>2011-10-13T10:00:07Z</time>
<desc>lat.=44.508484, lon.=34.187630, Alt.=185.564575m. Speed=23.507999m/h.</desc>
<speed>6.530000</speed>
</trkpt>
<trkpt lat="44.508533" lon="34.187191">
<ele>200.2</ele>
<time>2011-10-13T10:00:12Z</time>
<desc>lat.=44.508533, lon.=34.187191, Alt.=184.755981m. Speed=22.643999m/h.</desc>
<speed>6.290000</speed>
</trkpt>
<trkpt lat="44.509319" lon="34.186287">
<ele>199.8</ele>
<time>2011-10-13T10:00:27Z</time>
<desc>lat.=44.509319, lon.=34.186287, Alt.=183.439575m. Speed=27.072001m/h.</desc>
<speed>7.520000</speed>
</trkpt>
<trkpt lat="44.509480" lon="34.185822">
<ele>194.8</ele>
<time>2011-10-13T10:00:32Z</time>
<desc>lat.=44.509480, lon.=34.185822, Alt.=182.275513m. Speed=32.652000m/h.</desc>
<speed>9.070000</speed>
</trkpt>
<trkpt lat="44.509914" lon="34.183071">
<ele>185.3</ele>
<time>2011-10-13T10:00:52Z</time>
<desc>lat.=44.509914, lon.=34.183071, Alt.=173.088013m. Speed=39.132000m/h.</desc>
<speed>10.870000</speed>
</trkpt>
<trkpt lat="44.510666" lon="34.181557">
<ele>175.8</ele>
<time>2011-10-13T10:03:02Z</time>
<desc>lat.=44.510666, lon.=34.181557, Alt.=162.490356m. Speed=1.332000m/h.</desc>
<speed>0.370000</speed>
</trkpt>
<trkpt lat="44.510410" lon="34.181374">
<ele>173.1</ele>
<time>2011-10-13T10:03:32Z</time>
<desc>lat.=44.510410, lon.=34.181374, Alt.=163.033325m. Speed=7.200000m/h.</desc>
<speed>2.000000</speed>
</trkpt>
<trkpt lat="44.510620" lon="34.181087">
<ele>171.7</ele>
<time>2011-10-13T10:03:42Z</time>
<desc>lat.=44.510620, lon.=34.181087, Alt.=163.869263m. Speed=14.256000m/h.</desc>
<speed>3.960000</speed>
</trkpt>
<trkpt lat="44.512260" lon="34.180847">
<ele>168.0</ele>
<time>2011-10-13T10:04:47Z</time>
<desc>lat.=44.512260, lon.=34.180847, Alt.=156.017700m. Speed=24.732000m/h.</desc>
<speed>6.870000</speed>
</trkpt>
<trkpt lat="44.512409" lon="34.180080">
<ele>168.3</ele>
<time>2011-10-13T10:04:57Z</time>
<desc>lat.=44.512409, lon.=34.180080, Alt.=151.380981m. Speed=18.648001m/h.</desc>
<speed>5.180000</speed>
</trkpt>
<trkpt lat="44.512226" lon="34.179790">
<ele>166.8</ele>
<time>2011-10-13T10:05:02Z</time>
<desc>lat.=44.512226, lon.=34.179790, Alt.=148.771606m. Speed=23.148001m/h.</desc>
<speed>6.430000</speed>
</trkpt>
<trkpt lat="44.511013" lon="34.178730">
<ele>155.5</ele>
<time>2011-10-13T10:06:17Z</time>
<desc>lat.=44.511013, lon.=34.178730, Alt.=137.455200m. Speed=27.792000m/h.</desc>
<speed>7.720000</speed>
</trkpt>
<trkpt lat="44.510693" lon="34.178699">
<ele>151.7</ele>
<time>2011-10-13T10:06:22Z</time>
<desc>lat.=44.510693, lon.=34.178699, Alt.=135.310669m. Speed=27.143999m/h.</desc>
<speed>7.540000</speed>
</trkpt>
<trkpt lat="44.509705" lon="34.180058">
<ele>146.7</ele>
<time>2011-10-13T10:06:42Z</time>
<desc>lat.=44.509705, lon.=34.180058, Alt.=135.111450m. Speed=15.084000m/h.</desc>
<speed>4.190000</speed>
</trkpt>
<trkpt lat="44.509430" lon="34.179890">
<ele>144.6</ele>
<time>2011-10-13T10:06:47Z</time>
<desc>lat.=44.509430, lon.=34.179890, Alt.=135.095825m. Speed=21.132000m/h.</desc>
<speed>5.870000</speed>
</trkpt>
<trkpt lat="44.509686" lon="34.178082">
<ele>136.3</ele>
<time>2011-10-13T10:07:07Z</time>
<desc>lat.=44.509686, lon.=34.178082, Alt.=131.564575m. Speed=22.212000m/h.</desc>
<speed>6.170000</speed>
</trkpt>
<trkpt lat="44.510063" lon="34.177425">
<ele>131.0</ele>
<time>2011-10-13T10:07:17Z</time>
<desc>lat.=44.510063, lon.=34.177425, Alt.=126.794006m. Speed=28.080000m/h.</desc>
<speed>7.800000</speed>
</trkpt>
<trkpt lat="44.510113" lon="34.177044">
<ele>126.1</ele>
<time>2011-10-13T10:07:22Z</time>
<desc>lat.=44.510113, lon.=34.177044, Alt.=125.317444m. Speed=20.591999m/h.</desc>
<speed>5.720000</speed>
</trkpt>
<trkpt lat="44.509922" lon="34.176922">
<ele>122.7</ele>
<time>2011-10-13T10:07:27Z</time>
<desc>lat.=44.509922, lon.=34.176922, Alt.=119.198303m. Speed=24.264000m/h.</desc>
<speed>6.740000</speed>
</trkpt>
<trkpt lat="44.509621" lon="34.177036">
<ele>118.9</ele>
<time>2011-10-13T10:07:32Z</time>
<desc>lat.=44.509621, lon.=34.177036, Alt.=114.422913m. Speed=25.596001m/h.</desc>
<speed>7.110000</speed>
</trkpt>
<trkpt lat="44.509266" lon="34.177647">
<ele>122.6</ele>
<time>2011-10-13T10:07:42Z</time>
<desc>lat.=44.509266, lon.=34.177647, Alt.=108.358459m. Speed=20.628000m/h.</desc>
<speed>5.730000</speed>
</trkpt>
<trkpt lat="44.509029" lon="34.177731">
<ele>125.3</ele>
<time>2011-10-13T10:07:47Z</time>
<desc>lat.=44.509029, lon.=34.177731, Alt.=105.542053m. Speed=27.323999m/h.</desc>
<speed>7.590000</speed>
</trkpt>
<trkpt lat="44.508263" lon="34.176952">
<ele>111.9</ele>
<time>2011-10-13T10:08:02Z</time>
<desc>lat.=44.508263, lon.=34.176952, Alt.=99.676819m. Speed=25.056000m/h.</desc>
<speed>6.960000</speed>
</trkpt>
<trkpt lat="44.507984" lon="34.177006">
<ele>110.8</ele>
<time>2011-10-13T10:08:07Z</time>
<desc>lat.=44.507984, lon.=34.177006, Alt.=97.624084m. Speed=24.011999m/h.</desc>
<speed>6.670000</speed>
</trkpt>
<trkpt lat="44.507656" lon="34.177242">
<ele>105.7</ele>
<time>2011-10-13T10:08:12Z</time>
<desc>lat.=44.507656, lon.=34.177242, Alt.=95.405334m. Speed=28.872000m/h.</desc>
<speed>8.020000</speed>
</trkpt>
<trkpt lat="44.507477" lon="34.177658">
<ele>101.8</ele>
<time>2011-10-13T10:08:17Z</time>
<desc>lat.=44.507477, lon.=34.177658, Alt.=93.919006m. Speed=21.455999m/h.</desc>
<speed>5.960000</speed>
</trkpt>
<trkpt lat="44.507347" lon="34.178707">
<ele>107.5</ele>
<time>2011-10-13T10:08:32Z</time>
<desc>lat.=44.507347, lon.=34.178707, Alt.=88.469788m. Speed=19.728001m/h.</desc>
<speed>5.480000</speed>
</trkpt>
<trkpt lat="44.507103" lon="34.178738">
<ele>112.1</ele>
<time>2011-10-13T10:08:37Z</time>
<desc>lat.=44.507103, lon.=34.178738, Alt.=88.376038m. Speed=23.112000m/h.</desc>
<speed>6.420000</speed>
</trkpt>
<trkpt lat="44.506687" lon="34.178150">
<ele>107.5</ele>
<time>2011-10-13T10:08:47Z</time>
<desc>lat.=44.506687, lon.=34.178150, Alt.=85.788147m. Speed=22.896000m/h.</desc>
<speed>6.360000</speed>
</trkpt>
<trkpt lat="44.506386" lon="34.177193">
<ele>97.4</ele>
<time>2011-10-13T10:08:57Z</time>
<desc>lat.=44.506386, lon.=34.177193, Alt.=81.917053m. Speed=21.600000m/h.</desc>
<speed>6.000000</speed>
</trkpt>
<trkpt lat="44.505360" lon="34.176521">
<ele>90.2</ele>
<time>2011-10-13T10:09:12Z</time>
<desc>lat.=44.505360, lon.=34.176521, Alt.=75.983459m. Speed=26.784000m/h.</desc>
<speed>7.440000</speed>
</trkpt>
<trkpt lat="44.505089" lon="34.176140">
<ele>91.1</ele>
<time>2011-10-13T10:09:17Z</time>
<desc>lat.=44.505089, lon.=34.176140, Alt.=73.856506m. Speed=29.664000m/h.</desc>
<speed>8.240000</speed>
</trkpt>
<trkpt lat="44.504902" lon="34.174404">
<ele>81.4</ele>
<time>2011-10-13T10:09:37Z</time>
<desc>lat.=44.504902, lon.=34.174404, Alt.=70.817444m. Speed=20.736000m/h.</desc>
<speed>5.760000</speed>
</trkpt>
<trkpt lat="44.504555" lon="34.173603">
<ele>77.2</ele>
<time>2011-10-13T10:09:47Z</time>
<desc>lat.=44.504555, lon.=34.173603, Alt.=69.370178m. Speed=28.188000m/h.</desc>
<speed>7.830000</speed>
</trkpt>
<trkpt lat="44.504284" lon="34.173405">
<ele>73.4</ele>
<time>2011-10-13T10:09:52Z</time>
<desc>lat.=44.504284, lon.=34.173405, Alt.=63.995636m. Speed=21.672001m/h.</desc>
<speed>6.020000</speed>
</trkpt>
<trkpt lat="44.503258" lon="34.174137">
<ele>66.9</ele>
<time>2011-10-13T10:10:12Z</time>
<desc>lat.=44.503258, lon.=34.174137, Alt.=51.352081m. Speed=16.596001m/h.</desc>
<speed>4.610000</speed>
</trkpt>
<trkpt lat="44.502323" lon="34.173336">
<ele>55.5</ele>
<time>2011-10-13T10:10:27Z</time>
<desc>lat.=44.502323, lon.=34.173336, Alt.=42.812042m. Speed=27.684000m/h.</desc>
<speed>7.690000</speed>
</trkpt>
<trkpt lat="44.501705" lon="34.173462">
<ele>58.0</ele>
<time>2011-10-13T10:10:37Z</time>
<desc>lat.=44.501705, lon.=34.173462, Alt.=34.156769m. Speed=25.596001m/h.</desc>
<speed>7.110000</speed>
</trkpt>
<trkpt lat="44.501217" lon="34.173035">
<ele>47.4</ele>
<time>2011-10-13T10:10:47Z</time>
<desc>lat.=44.501217, lon.=34.173035, Alt.=26.632095m. Speed=30.275999m/h.</desc>
<speed>8.410000</speed>
</trkpt>
<trkpt lat="44.498600" lon="34.173912">
<ele>32.5</ele>
<time>2011-10-13T10:12:27Z</time>
<desc>lat.=44.498600, lon.=34.173912, Alt.=14.568245m. Speed=4.896000m/h.</desc>
<speed>1.360000</speed>
</trkpt>
<trkpt lat="44.498535" lon="34.173645">
<ele>29.3</ele>
<time>2011-10-13T10:12:42Z</time>
<desc>lat.=44.498535, lon.=34.173645, Alt.=17.653091m. Speed=9.036000m/h.</desc>
<speed>2.510000</speed>
</trkpt>
<trkpt lat="44.498817" lon="34.173290">
<ele>27.6</ele>
<time>2011-10-13T10:13:07Z</time>
<desc>lat.=44.498817, lon.=34.173290, Alt.=8.636360m. Speed=4.104000m/h.</desc>
<speed>1.140000</speed>
</trkpt>
<trkpt lat="44.498276" lon="34.173046">
<ele>22.0</ele>
<time>2011-10-13T10:13:37Z</time>
<desc>lat.=44.498276, lon.=34.173046, Alt.=-0.546181m. Speed=9.504000m/h.</desc>
<speed>2.640000</speed>
</trkpt>
<trkpt lat="44.497719" lon="34.172340">
<ele>11.5</ele>
<time>2011-10-13T10:14:22Z</time>
<desc>lat.=44.497719, lon.=34.172340, Alt.=-9.284065m. Speed=7.164000m/h.</desc>
<speed>1.990000</speed>
</trkpt>
<trkpt lat="44.497547" lon="34.170010">
<ele>10.2</ele>
<time>2011-10-13T10:15:37Z</time>
<desc>lat.=44.497547, lon.=34.170010, Alt.=-11.411995m. Speed=1.440000m/h.</desc>
<speed>0.400000</speed>
</trkpt>
<trkpt lat="44.497536" lon="34.170277">
<ele>11.6</ele>
<time>2011-10-13T10:15:47Z</time>
<desc>lat.=44.497536, lon.=34.170277, Alt.=-11.463753m. Speed=9.792000m/h.</desc>
<speed>2.720000</speed>
</trkpt>
<trkpt lat="44.497292" lon="34.170475">
<ele>11.1</ele>
<time>2011-10-13T10:16:07Z</time>
<desc>lat.=44.497292, lon.=34.170475, Alt.=-10.124397m. Speed=1.512000m/h.</desc>
<speed>0.420000</speed>
</trkpt>
<trkpt lat="44.496891" lon="34.170280">
<ele>7.4</ele>
<time>2011-10-13T10:16:22Z</time>
<desc>lat.=44.496891, lon.=34.170280, Alt.=-4.993351m. Speed=10.260000m/h.</desc>
<speed>2.850000</speed>
</trkpt>
<trkpt lat="44.496700" lon="34.170433">
<ele>6.4</ele>
<time>2011-10-13T10:16:32Z</time>
<desc>lat.=44.496700, lon.=34.170433, Alt.=-4.854191m. Speed=4.356000m/h.</desc>
<speed>1.210000</speed>
</trkpt>
<trkpt lat="44.496563" lon="34.170227">
<ele>5.3</ele>
<time>2011-10-13T10:16:42Z</time>
<desc>lat.=44.496563, lon.=34.170227, Alt.=-5.677921m. Speed=11.664000m/h.</desc>
<speed>3.240000</speed>
</trkpt>
<trkpt lat="44.496624" lon="34.169735">
<ele>4.1</ele>
<time>2011-10-13T10:16:57Z</time>
<desc>lat.=44.496624, lon.=34.169735, Alt.=-9.520882m. Speed=8.640000m/h.</desc>
<speed>2.400000</speed>
</trkpt>
<trkpt lat="44.496513" lon="34.169674">
<ele>3.8</ele>
<time>2011-10-13T10:17:07Z</time>
<desc>lat.=44.496513, lon.=34.169674, Alt.=-10.420540m. Speed=2.880000m/h.</desc>
<speed>0.800000</speed>
</trkpt>
<trkpt lat="44.496655" lon="34.169758">
<ele>4.1</ele>
<time>2011-10-13T10:17:27Z</time>
<desc>lat.=44.496655, lon.=34.169758, Alt.=-9.623421m. Speed=0.000000m/h.</desc>
<speed>0.000000</speed>
</trkpt>
<trkpt lat="44.496002" lon="34.169395">
<ele>2.5</ele>
<time>2011-10-13T10:19:02Z</time>
<desc>lat.=44.496002, lon.=34.169395, Alt.=-14.387825m. Speed=10.764000m/h.</desc>
<speed>2.990000</speed>
</trkpt>
<trkpt lat="44.495789" lon="34.169868">
<ele>2.6</ele>
<time>2011-10-13T10:19:17Z</time>
<desc>lat.=44.495789, lon.=34.169868, Alt.=-15.545784m. Speed=8.064000m/h.</desc>
<speed>2.240000</speed>
</trkpt>
<trkpt lat="44.495888" lon="34.170155">
<ele>2.5</ele>
<time>2011-10-13T10:20:42Z</time>
<desc>lat.=44.495888, lon.=34.170155, Alt.=-15.592171m. Speed=0.216000m/h.</desc>
<speed>0.060000</speed>
</trkpt>
<trkpt lat="44.495674" lon="34.169853">
<ele>2.5</ele>
<time>2011-10-13T10:21:42Z</time>
<desc>lat.=44.495674, lon.=34.169853, Alt.=-14.503304m. Speed=0.108000m/h.</desc>
<speed>0.030000</speed>
</trkpt>
<trkpt lat="44.495895" lon="34.170212">
<ele>2.5</ele>
<time>2011-10-13T10:30:52Z</time>
<desc>lat.=44.495895, lon.=34.170212, Alt.=-16.618912m. Speed=0.972000m/h.</desc>
<speed>0.270000</speed>
</trkpt>
<trkpt lat="44.495548" lon="34.168552">
<ele>1.0</ele>
<time>2011-10-13T10:35:57Z</time>
<desc>lat.=44.495548, lon.=34.168552, Alt.=-17.291763m. Speed=9.396000m/h.</desc>
<speed>2.610000</speed>
</trkpt>
<trkpt lat="44.494938" lon="34.167496">
<ele>1.0</ele>
<time>2011-10-13T10:36:42Z</time>
<desc>lat.=44.494938, lon.=34.167496, Alt.=-18.307877m. Speed=6.660000m/h.</desc>
<speed>1.850000</speed>
</trkpt>
<trkpt lat="44.494972" lon="34.167324">
<ele>3.4</ele>
<time>2011-10-13T10:37:17Z</time>
<desc>lat.=44.494972, lon.=34.167324, Alt.=-22.933365m. Speed=1.656000m/h.</desc>
<speed>0.460000</speed>
</trkpt>
<trkpt lat="44.494644" lon="34.166744">
<ele>2.2</ele>
<time>2011-10-13T10:38:32Z</time>
<desc>lat.=44.494644, lon.=34.166744, Alt.=-16.931900m. Speed=4.428000m/h.</desc>
<speed>1.230000</speed>
</trkpt>
<trkpt lat="44.493530" lon="34.165558">
<ele>1.2</ele>
<time>2011-10-13T10:40:07Z</time>
<desc>lat.=44.493530, lon.=34.165558, Alt.=-13.897591m. Speed=0.036000m/h.</desc>
<speed>0.010000</speed>
</trkpt>
<trkpt lat="44.493679" lon="34.165623">
<ele>1.7</ele>
<time>2011-10-13T10:44:12Z</time>
<desc>lat.=44.493679, lon.=34.165623, Alt.=-14.474007m. Speed=0.036000m/h.</desc>
<speed>0.010000</speed>
</trkpt>
<trkpt lat="44.492100" lon="34.164516">
<ele>0.0</ele>
<time>2011-10-13T10:45:52Z</time>
<desc>lat.=44.492100, lon.=34.164516, Alt.=-10.427376m. Speed=0.432000m/h.</desc>
<speed>0.120000</speed>
</trkpt>
<trkpt lat="44.492085" lon="34.164318">
<ele>0.0</ele>
<time>2011-10-13T10:48:07Z</time>
<desc>lat.=44.492085, lon.=34.164318, Alt.=-10.193977m. Speed=7.488000m/h.</desc>
<speed>2.080000</speed>
</trkpt>
<trkpt lat="44.490509" lon="34.163395">
<ele>3.6</ele>
<time>2011-10-13T10:49:27Z</time>
<desc>lat.=44.490509, lon.=34.163395, Alt.=3.205904m. Speed=6.912000m/h.</desc>
<speed>1.920000</speed>
</trkpt>
<trkpt lat="44.489826" lon="34.162601">
<ele>7.3</ele>
<time>2011-10-13T10:54:37Z</time>
<desc>lat.=44.489826, lon.=34.162601, Alt.=3.643221m. Speed=5.328000m/h.</desc>
<speed>1.480000</speed>
</trkpt>
<trkpt lat="44.489735" lon="34.162746">
<ele>5.7</ele>
<time>2011-10-13T10:55:22Z</time>
<desc>lat.=44.489735, lon.=34.162746, Alt.=1.689591m. Speed=0.504000m/h.</desc>
<speed>0.140000</speed>
</trkpt>
<trkpt lat="44.489876" lon="34.162926">
<ele>4.4</ele>
<time>2011-10-13T11:00:27Z</time>
<desc>lat.=44.489876, lon.=34.162926, Alt.=10.805550m. Speed=1.116000m/h.</desc>
<speed>0.310000</speed>
</trkpt>
<trkpt lat="44.489613" lon="34.163101">
<ele>2.3</ele>
<time>2011-10-13T11:02:07Z</time>
<desc>lat.=44.489613, lon.=34.163101, Alt.=17.142838m. Speed=4.104000m/h.</desc>
<speed>1.140000</speed>
</trkpt>
<trkpt lat="44.489777" lon="34.162174">
<ele>7.5</ele>
<time>2011-10-13T11:08:27Z</time>
<desc>lat.=44.489777, lon.=34.162174, Alt.=14.035286m. Speed=5.004000m/h.</desc>
<speed>1.390000</speed>
</trkpt>
<trkpt lat="44.489410" lon="34.161880">
<ele>13.2</ele>
<time>2011-10-13T11:08:47Z</time>
<desc>lat.=44.489410, lon.=34.161880, Alt.=24.262955m. Speed=8.064000m/h.</desc>
<speed>2.240000</speed>
</trkpt>
<trkpt lat="44.489216" lon="34.160862">
<ele>13.1</ele>
<time>2011-10-13T11:09:27Z</time>
<desc>lat.=44.489216, lon.=34.160862, Alt.=52.119659m. Speed=3.384000m/h.</desc>
<speed>0.940000</speed>
</trkpt>
<trkpt lat="44.488369" lon="34.159828">
<ele>14.8</ele>
<time>2011-10-13T11:10:42Z</time>
<desc>lat.=44.488369, lon.=34.159828, Alt.=55.500519m. Speed=1.584000m/h.</desc>
<speed>0.440000</speed>
</trkpt>
<trkpt lat="44.487427" lon="34.159512">
<ele>28.7</ele>
<time>2011-10-13T11:11:27Z</time>
<desc>lat.=44.487427, lon.=34.159512, Alt.=51.864777m. Speed=3.672000m/h.</desc>
<speed>1.020000</speed>
</trkpt>
<trkpt lat="44.487183" lon="34.158848">
<ele>28.8</ele>
<time>2011-10-13T11:11:52Z</time>
<desc>lat.=44.487183, lon.=34.158848, Alt.=56.027863m. Speed=8.172000m/h.</desc>
<speed>2.270000</speed>
</trkpt>
<trkpt lat="44.486465" lon="34.158417">
<ele>36.0</ele>
<time>2011-10-13T11:12:27Z</time>
<desc>lat.=44.486465, lon.=34.158417, Alt.=55.393097m. Speed=1.404000m/h.</desc>
<speed>0.390000</speed>
</trkpt>
<trkpt lat="44.486458" lon="34.158142">
<ele>37.1</ele>
<time>2011-10-13T11:12:47Z</time>
<desc>lat.=44.486458, lon.=34.158142, Alt.=57.740753m. Speed=2.268000m/h.</desc>
<speed>0.630000</speed>
</trkpt>
<trkpt lat="44.486282" lon="34.158085">
<ele>36.7</ele>
<time>2011-10-13T11:12:57Z</time>
<desc>lat.=44.486282, lon.=34.158085, Alt.=55.131378m. Speed=4.032000m/h.</desc>
<speed>1.120000</speed>
</trkpt>
<trkpt lat="44.486069" lon="34.157513">
<ele>44.9</ele>
<time>2011-10-13T11:13:27Z</time>
<desc>lat.=44.486069, lon.=34.157513, Alt.=68.713928m. Speed=1.800000m/h.</desc>
<speed>0.500000</speed>
</trkpt>
<trkpt lat="44.485725" lon="34.157677">
<ele>40.2</ele>
<time>2011-10-13T11:13:42Z</time>
<desc>lat.=44.485725, lon.=34.157677, Alt.=74.157288m. Speed=3.240000m/h.</desc>
<speed>0.900000</speed>
</trkpt>
<trkpt lat="44.484894" lon="34.157623">
<ele>43.8</ele>
<time>2011-10-13T11:14:12Z</time>
<desc>lat.=44.484894, lon.=34.157623, Alt.=100.268616m. Speed=3.168000m/h.</desc>
<speed>0.880000</speed>
</trkpt>
<trkpt lat="44.484825" lon="34.157413">
<ele>46.6</ele>
<time>2011-10-13T11:14:22Z</time>
<desc>lat.=44.484825, lon.=34.157413, Alt.=108.926819m. Speed=8.172000m/h.</desc>
<speed>2.270000</speed>
</trkpt>
<trkpt lat="44.484985" lon="34.156845">
<ele>55.8</ele>
<time>2011-10-13T11:14:37Z</time>
<desc>lat.=44.484985, lon.=34.156845, Alt.=122.284241m. Speed=5.904000m/h.</desc>
<speed>1.640000</speed>
</trkpt>
<trkpt lat="44.484383" lon="34.156826">
<ele>52.2</ele>
<time>2011-10-13T11:14:57Z</time>
<desc>lat.=44.484383, lon.=34.156826, Alt.=135.693481m. Speed=2.736000m/h.</desc>
<speed>0.760000</speed>
</trkpt>
<trkpt lat="44.484360" lon="34.156319">
<ele>52.9</ele>
<time>2011-10-13T11:15:22Z</time>
<desc>lat.=44.484360, lon.=34.156319, Alt.=147.607544m. Speed=5.148000m/h.</desc>
<speed>1.430000</speed>
</trkpt>
<trkpt lat="44.484215" lon="34.156139">
<ele>53.3</ele>
<time>2011-10-13T11:15:32Z</time>
<desc>lat.=44.484215, lon.=34.156139, Alt.=152.904419m. Speed=6.552000m/h.</desc>
<speed>1.820000</speed>
</trkpt>
<trkpt lat="44.483627" lon="34.156242">
<ele>49.9</ele>
<time>2011-10-13T11:15:47Z</time>
<desc>lat.=44.483627, lon.=34.156242, Alt.=158.041138m. Speed=0.432000m/h.</desc>
<speed>0.120000</speed>
</trkpt>
<trkpt lat="44.482979" lon="34.155987">
<ele>45.6</ele>
<time>2011-10-13T11:16:17Z</time>
<desc>lat.=44.482979, lon.=34.155987, Alt.=172.595825m. Speed=3.348000m/h.</desc>
<speed>0.930000</speed>
</trkpt>
<trkpt lat="44.482624" lon="34.153683">
<ele>89.4</ele>
<time>2011-10-13T11:17:42Z</time>
<desc>lat.=44.482624, lon.=34.153683, Alt.=170.724731m. Speed=0.432000m/h.</desc>
<speed>0.120000</speed>
</trkpt>
<trkpt lat="44.482281" lon="34.153450">
<ele>90.0</ele>
<time>2011-10-13T11:17:52Z</time>
<desc>lat.=44.482281, lon.=34.153450, Alt.=169.244263m. Speed=3.672000m/h.</desc>
<speed>1.020000</speed>
</trkpt>
<trkpt lat="44.481571" lon="34.153378">
<ele>86.5</ele>
<time>2011-10-13T11:18:12Z</time>
<desc>lat.=44.481571, lon.=34.153378, Alt.=164.451294m. Speed=3.564000m/h.</desc>
<speed>0.990000</speed>
</trkpt>
<trkpt lat="44.480419" lon="34.151329">
<ele>100.3</ele>
<time>2011-10-13T11:20:02Z</time>
<desc>lat.=44.480419, lon.=34.151329, Alt.=172.834106m. Speed=6.120000m/h.</desc>
<speed>1.700000</speed>
</trkpt>
<trkpt lat="44.480518" lon="34.150433">
<ele>108.4</ele>
<time>2011-10-13T11:20:27Z</time>
<desc>lat.=44.480518, lon.=34.150433, Alt.=169.545044m. Speed=0.828000m/h.</desc>
<speed>0.230000</speed>
</trkpt>
<trkpt lat="44.480328" lon="34.150112">
<ele>112.0</ele>
<time>2011-10-13T11:20:37Z</time>
<desc>lat.=44.480328, lon.=34.150112, Alt.=170.170044m. Speed=0.936000m/h.</desc>
<speed>0.260000</speed>
</trkpt>
<trkpt lat="44.479633" lon="34.150841">
<ele>98.8</ele>
<time>2011-10-13T11:22:07Z</time>
<desc>lat.=44.479633, lon.=34.150841, Alt.=138.884888m. Speed=3.420000m/h.</desc>
<speed>0.950000</speed>
</trkpt>
<trkpt lat="44.480148" lon="34.150284">
<ele>109.3</ele>
<time>2011-10-13T11:22:42Z</time>
<desc>lat.=44.480148, lon.=34.150284, Alt.=131.525513m. Speed=9.468000m/h.</desc>
<speed>2.630000</speed>
</trkpt>
<trkpt lat="44.480858" lon="34.149986">
<ele>112.8</ele>
<time>2011-10-13T11:23:12Z</time>
<desc>lat.=44.480858, lon.=34.149986, Alt.=142.865356m. Speed=1.764000m/h.</desc>
<speed>0.490000</speed>
</trkpt>
<trkpt lat="44.482296" lon="34.151360">
<ele>112.8</ele>
<time>2011-10-13T11:24:12Z</time>
<desc>lat.=44.482296, lon.=34.151360, Alt.=147.482544m. Speed=5.976000m/h.</desc>
<speed>1.660000</speed>
</trkpt>
<trkpt lat="44.482803" lon="34.151512">
<ele>116.5</ele>
<time>2011-10-13T11:24:27Z</time>
<desc>lat.=44.482803, lon.=34.151512, Alt.=134.798950m. Speed=4.896000m/h.</desc>
<speed>1.360000</speed>
</trkpt>
<trkpt lat="44.482986" lon="34.151321">
<ele>122.8</ele>
<time>2011-10-13T11:24:47Z</time>
<desc>lat.=44.482986, lon.=34.151321, Alt.=132.709106m. Speed=3.924000m/h.</desc>
<speed>1.090000</speed>
</trkpt>
<trkpt lat="44.482616" lon="34.150944">
<ele>121.1</ele>
<time>2011-10-13T11:25:27Z</time>
<desc>lat.=44.482616, lon.=34.150944, Alt.=161.857544m. Speed=6.264000m/h.</desc>
<speed>1.740000</speed>
</trkpt>
<trkpt lat="44.482178" lon="34.150021">
<ele>121.2</ele>
<time>2011-10-13T11:26:02Z</time>
<desc>lat.=44.482178, lon.=34.150021, Alt.=191.189575m. Speed=5.472000m/h.</desc>
<speed>1.520000</speed>
</trkpt>
<trkpt lat="44.480824" lon="34.149063">
<ele>119.6</ele>
<time>2011-10-13T11:27:17Z</time>
<desc>lat.=44.480824, lon.=34.149063, Alt.=240.904419m. Speed=6.876000m/h.</desc>
<speed>1.910000</speed>
</trkpt>
<trkpt lat="44.480042" lon="34.148209">
<ele>126.7</ele>
<time>2011-10-13T11:28:07Z</time>
<desc>lat.=44.480042, lon.=34.148209, Alt.=263.277588m. Speed=6.732000m/h.</desc>
<speed>1.870000</speed>
</trkpt>
<trkpt lat="44.479313" lon="34.146240">
<ele>132.8</ele>
<time>2011-10-13T11:29:17Z</time>
<desc>lat.=44.479313, lon.=34.146240, Alt.=297.941650m. Speed=5.472000m/h.</desc>
<speed>1.520000</speed>
</trkpt>
<trkpt lat="44.478676" lon="34.145283">
<ele>147.9</ele>
<time>2011-10-13T11:29:57Z</time>
<desc>lat.=44.478676, lon.=34.145283, Alt.=306.176025m. Speed=5.508000m/h.</desc>
<speed>1.530000</speed>
</trkpt>
<trkpt lat="44.478458" lon="34.145153">
<ele>145.6</ele>
<time>2011-10-13T11:30:12Z</time>
<desc>lat.=44.478458, lon.=34.145153, Alt.=308.972900m. Speed=2.592000m/h.</desc>
<speed>0.720000</speed>
</trkpt>
<trkpt lat="44.478218" lon="34.145321">
<ele>140.5</ele>
<time>2011-10-13T11:30:22Z</time>
<desc>lat.=44.478218, lon.=34.145321, Alt.=307.894775m. Speed=2.988000m/h.</desc>
<speed>0.830000</speed>
</trkpt>
<trkpt lat="44.478134" lon="34.144890">
<ele>145.1</ele>
<time>2011-10-13T11:30:57Z</time>
<desc>lat.=44.478134, lon.=34.144890, Alt.=281.910400m. Speed=0.540000m/h.</desc>
<speed>0.150000</speed>
</trkpt>
<trkpt lat="44.478371" lon="34.143860">
<ele>158.6</ele>
<time>2011-10-13T11:32:32Z</time>
<desc>lat.=44.478371, lon.=34.143860, Alt.=264.019775m. Speed=0.792000m/h.</desc>
<speed>0.220000</speed>
</trkpt>
<trkpt lat="44.478210" lon="34.143684">
<ele>159.6</ele>
<time>2011-10-13T11:32:37Z</time>
<desc>lat.=44.478210, lon.=34.143684, Alt.=263.105713m. Speed=14.040000m/h.</desc>
<speed>3.900000</speed>
</trkpt>
<trkpt lat="44.477818" lon="34.143532">
<ele>156.6</ele>
<time>2011-10-13T11:32:47Z</time>
<desc>lat.=44.477818, lon.=34.143532, Alt.=266.426025m. Speed=19.620001m/h.</desc>
<speed>5.450000</speed>
</trkpt>
<trkpt lat="44.476841" lon="34.143700">
<ele>149.0</ele>
<time>2011-10-13T11:33:07Z</time>
<desc>lat.=44.476841, lon.=34.143700, Alt.=282.152588m. Speed=30.275999m/h.</desc>
<speed>8.410000</speed>
</trkpt>
<trkpt lat="44.476128" lon="34.144073">
<ele>155.6</ele>
<time>2011-10-13T11:33:22Z</time>
<desc>lat.=44.476128, lon.=34.144073, Alt.=294.668213m. Speed=5.076000m/h.</desc>
<speed>1.410000</speed>
</trkpt>
<trkpt lat="44.476440" lon="34.143894">
<ele>154.4</ele>
<time>2011-10-13T11:33:42Z</time>
<desc>lat.=44.476440, lon.=34.143894, Alt.=320.293213m. Speed=16.920000m/h.</desc>
<speed>4.700000</speed>
</trkpt>
<trkpt lat="44.476124" lon="34.142838">
<ele>154.0</ele>
<time>2011-10-13T11:34:07Z</time>
<desc>lat.=44.476124, lon.=34.142838, Alt.=321.449463m. Speed=1.944000m/h.</desc>
<speed>0.540000</speed>
</trkpt>
<trkpt lat="44.476559" lon="34.142357">
<ele>161.2</ele>
<time>2011-10-13T11:34:12Z</time>
<desc>lat.=44.476559, lon.=34.142357, Alt.=322.043213m. Speed=2.412000m/h.</desc>
<speed>0.670000</speed>
</trkpt>
<trkpt lat="44.476997" lon="34.141441">
<ele>180.6</ele>
<time>2011-10-13T11:34:27Z</time>
<desc>lat.=44.476997, lon.=34.141441, Alt.=317.058838m. Speed=6.948000m/h.</desc>
<speed>1.930000</speed>
</trkpt>
<trkpt lat="44.476051" lon="34.142372">
<ele>155.0</ele>
<time>2011-10-13T11:34:52Z</time>
<desc>lat.=44.476051, lon.=34.142372, Alt.=343.629150m. Speed=9.108000m/h.</desc>
<speed>2.530000</speed>
</trkpt>
<trkpt lat="44.475246" lon="34.142654">
<ele>152.7</ele>
<time>2011-10-13T11:35:07Z</time>
<desc>lat.=44.475246, lon.=34.142654, Alt.=360.340088m. Speed=2.556000m/h.</desc>
<speed>0.710000</speed>
</trkpt>
<trkpt lat="44.474777" lon="34.143032">
<ele>149.5</ele>
<time>2011-10-13T11:35:22Z</time>
<desc>lat.=44.474777, lon.=34.143032, Alt.=377.011963m. Speed=2.016000m/h.</desc>
<speed>0.560000</speed>
</trkpt>
<trkpt lat="44.474365" lon="34.143017">
<ele>151.1</ele>
<time>2011-10-13T11:35:32Z</time>
<desc>lat.=44.474365, lon.=34.143017, Alt.=387.863525m. Speed=4.968000m/h.</desc>
<speed>1.380000</speed>
</trkpt>
<trkpt lat="44.474079" lon="34.142895">
<ele>154.1</ele>
<time>2011-10-13T11:35:42Z</time>
<desc>lat.=44.474079, lon.=34.142895, Alt.=399.121338m. Speed=0.792000m/h.</desc>
<speed>0.220000</speed>
</trkpt>
<trkpt lat="44.474030" lon="34.142258">
<ele>164.9</ele>
<time>2011-10-13T11:35:57Z</time>
<desc>lat.=44.474030, lon.=34.142258, Alt.=410.566650m. Speed=2.484000m/h.</desc>
<speed>0.690000</speed>
</trkpt>
<trkpt lat="44.473484" lon="34.141613">
<ele>189.0</ele>
<time>2011-10-13T11:36:27Z</time>
<desc>lat.=44.473484, lon.=34.141613, Alt.=433.699463m. Speed=1.260000m/h.</desc>
<speed>0.350000</speed>
</trkpt>
<trkpt lat="44.473000" lon="34.141357">
<ele>196.7</ele>
<time>2011-10-13T11:36:47Z</time>
<desc>lat.=44.473000, lon.=34.141357, Alt.=442.824463m. Speed=2.304000m/h.</desc>
<speed>0.640000</speed>
</trkpt>
<trkpt lat="44.473232" lon="34.140087">
<ele>221.0</ele>
<time>2011-10-13T11:37:22Z</time>
<desc>lat.=44.473232, lon.=34.140087, Alt.=447.660400m. Speed=0.288000m/h.</desc>
<speed>0.080000</speed>
</trkpt>
<trkpt lat="44.472775" lon="34.139988">
<ele>228.0</ele>
<time>2011-10-13T11:37:52Z</time>
<desc>lat.=44.472775, lon.=34.139988, Alt.=452.644775m. Speed=0.792000m/h.</desc>
<speed>0.220000</speed>
</trkpt>
<trkpt lat="44.472324" lon="34.140217">
<ele>221.7</ele>
<time>2011-10-13T11:38:47Z</time>
<desc>lat.=44.472324, lon.=34.140217, Alt.=447.082275m. Speed=0.468000m/h.</desc>
<speed>0.130000</speed>
</trkpt>
<trkpt lat="44.471966" lon="34.140797">
<ele>203.7</ele>
<time>2011-10-13T11:38:52Z</time>
<desc>lat.=44.471966, lon.=34.140797, Alt.=439.176025m. Speed=3.600000m/h.</desc>
<speed>1.000000</speed>
</trkpt>
<trkpt lat="44.473171" lon="34.138779">
<ele>249.4</ele>
<time>2011-10-13T11:38:57Z</time>
<desc>lat.=44.473171, lon.=34.138779, Alt.=433.691650m. Speed=2.160000m/h.</desc>
<speed>0.600000</speed>
</trkpt>
<trkpt lat="44.472919" lon="34.138939">
<ele>244.6</ele>
<time>2011-10-13T11:39:02Z</time>
<desc>lat.=44.472919, lon.=34.138939, Alt.=433.472900m. Speed=2.664000m/h.</desc>
<speed>0.740000</speed>
</trkpt>
<trkpt lat="44.472488" lon="34.139904">
<ele>232.2</ele>
<time>2011-10-13T11:39:32Z</time>
<desc>lat.=44.472488, lon.=34.139904, Alt.=431.683838m. Speed=0.360000m/h.</desc>
<speed>0.100000</speed>
</trkpt>
<trkpt lat="44.470066" lon="34.143551">
<ele>144.8</ele>
<time>2011-10-13T11:39:47Z</time>
<desc>lat.=44.470066, lon.=34.143551, Alt.=452.816650m. Speed=0.288000m/h.</desc>
<speed>0.080000</speed>
</trkpt>
<trkpt lat="44.468647" lon="34.143646">
<ele>149.0</ele>
<time>2011-10-13T11:41:52Z</time>
<desc>lat.=44.468647, lon.=34.143646, Alt.=280.605713m. Speed=6.768000m/h.</desc>
<speed>1.880000</speed>
</trkpt>
<trkpt lat="44.468380" lon="34.144211">
<ele>139.5</ele>
<time>2011-10-13T11:42:32Z</time>
<desc>lat.=44.468380, lon.=34.144211, Alt.=279.746338m. Speed=3.924000m/h.</desc>
<speed>1.090000</speed>
</trkpt>
<trkpt lat="44.468800" lon="34.144405">
<ele>133.3</ele>
<time>2011-10-13T11:43:17Z</time>
<desc>lat.=44.468800, lon.=34.144405, Alt.=275.668213m. Speed=0.828000m/h.</desc>
<speed>0.230000</speed>
</trkpt>
<trkpt lat="44.468460" lon="34.144035">
<ele>144.3</ele>
<time>2011-10-13T11:44:02Z</time>
<desc>lat.=44.468460, lon.=34.144035, Alt.=278.957275m. Speed=4.392000m/h.</desc>
<speed>1.220000</speed>
</trkpt>
<trkpt lat="44.468498" lon="34.143826">
<ele>146.5</ele>
<time>2011-10-13T11:44:07Z</time>
<desc>lat.=44.468498, lon.=34.143826, Alt.=279.660400m. Speed=3.060000m/h.</desc>
<speed>0.850000</speed>
</trkpt>
<trkpt lat="44.467541" lon="34.144451">
<ele>132.4</ele>
<time>2011-10-13T11:44:12Z</time>
<desc>lat.=44.467541, lon.=34.144451, Alt.=280.097900m. Speed=5.688000m/h.</desc>
<speed>1.580000</speed>
</trkpt>
<trkpt lat="44.467297" lon="34.144932">
<ele>126.4</ele>
<time>2011-10-13T11:44:17Z</time>
<desc>lat.=44.467297, lon.=34.144932, Alt.=281.082275m. Speed=5.868000m/h.</desc>
<speed>1.630000</speed>
</trkpt>
<trkpt lat="44.467175" lon="34.144733">
<ele>127.5</ele>
<time>2011-10-13T11:44:22Z</time>
<desc>lat.=44.467175, lon.=34.144733, Alt.=278.386963m. Speed=6.372000m/h.</desc>
<speed>1.770000</speed>
</trkpt>
<trkpt lat="44.467319" lon="34.144779">
<ele>127.9</ele>
<time>2011-10-13T11:44:47Z</time>
<desc>lat.=44.467319, lon.=34.144779, Alt.=275.722900m. Speed=1.692000m/h.</desc>
<speed>0.470000</speed>
</trkpt>
<trkpt lat="44.467358" lon="34.145485">
<ele>118.3</ele>
<time>2011-10-13T11:46:32Z</time>
<desc>lat.=44.467358, lon.=34.145485, Alt.=280.097900m. Speed=2.412000m/h.</desc>
<speed>0.670000</speed>
</trkpt>
<trkpt lat="44.467651" lon="34.145855">
<ele>110.0</ele>
<time>2011-10-13T11:47:52Z</time>
<desc>lat.=44.467651, lon.=34.145855, Alt.=272.715088m. Speed=0.504000m/h.</desc>
<speed>0.140000</speed>
</trkpt>
<trkpt lat="44.467209" lon="34.145226">
<ele>122.9</ele>
<time>2011-10-13T11:49:32Z</time>
<desc>lat.=44.467209, lon.=34.145226, Alt.=276.535400m. Speed=1.476000m/h.</desc>
<speed>0.410000</speed>
</trkpt>
<trkpt lat="44.467613" lon="34.145477">
<ele>119.7</ele>
<time>2011-10-13T11:50:08Z</time>
<desc>lat.=44.467613, lon.=34.145477, Alt.=271.011963m. Speed=0.144000m/h.</desc>
<speed>0.040000</speed>
</trkpt>
<trkpt lat="44.467251" lon="34.145485">
<ele>117.3</ele>
<time>2011-10-13T11:51:13Z</time>
<desc>lat.=44.467251, lon.=34.145485, Alt.=253.908325m. Speed=9.756000m/h.</desc>
<speed>2.710000</speed>
</trkpt>
<trkpt lat="44.466125" lon="34.144436">
<ele>120.1</ele>
<time>2011-10-13T11:52:38Z</time>
<desc>lat.=44.466125, lon.=34.144436, Alt.=256.629150m. Speed=7.416000m/h.</desc>
<speed>2.060000</speed>
</trkpt>
<trkpt lat="44.466084" lon="34.143913">
<ele>128.6</ele>
<time>2011-10-13T11:52:58Z</time>
<desc>lat.=44.466084, lon.=34.143913, Alt.=264.207275m. Speed=5.616000m/h.</desc>
<speed>1.560000</speed>
</trkpt>
<trkpt lat="44.465698" lon="34.142830">
<ele>142.2</ele>
<time>2011-10-13T11:53:18Z</time>
<desc>lat.=44.465698, lon.=34.142830, Alt.=275.504150m. Speed=8.676000m/h.</desc>
<speed>2.410000</speed>
</trkpt>
<trkpt lat="44.465710" lon="34.141396">
<ele>162.1</ele>
<time>2011-10-13T11:53:48Z</time>
<desc>lat.=44.465710, lon.=34.141396, Alt.=302.957275m. Speed=9.036000m/h.</desc>
<speed>2.510000</speed>
</trkpt>
<trkpt lat="44.465782" lon="34.141586">
<ele>161.2</ele>
<time>2011-10-13T11:53:58Z</time>
<desc>lat.=44.465782, lon.=34.141586, Alt.=312.347900m. Speed=13.464000m/h.</desc>
<speed>3.740000</speed>
</trkpt>
<trkpt lat="44.465572" lon="34.141865">
<ele>153.4</ele>
<time>2011-10-13T11:54:03Z</time>
<desc>lat.=44.465572, lon.=34.141865, Alt.=316.777588m. Speed=9.180000m/h.</desc>
<speed>2.550000</speed>
</trkpt>
<trkpt lat="44.463604" lon="34.143719">
<ele>79.2</ele>
<time>2011-10-13T11:54:08Z</time>
<desc>lat.=44.463604, lon.=34.143719, Alt.=319.129150m. Speed=10.476000m/h.</desc>
<speed>2.910000</speed>
</trkpt>
<trkpt lat="44.463768" lon="34.145340">
<ele>65.1</ele>
<time>2011-10-13T11:54:43Z</time>
<desc>lat.=44.463768, lon.=34.145340, Alt.=348.199463m. Speed=11.808000m/h.</desc>
<speed>3.280000</speed>
</trkpt>
<trkpt lat="44.463570" lon="34.145836">
<ele>51.7</ele>
<time>2011-10-13T11:55:03Z</time>
<desc>lat.=44.463570, lon.=34.145836, Alt.=349.847900m. Speed=0.648000m/h.</desc>
<speed>0.180000</speed>
</trkpt>
<trkpt lat="44.463703" lon="34.146664">
<ele>26.9</ele>
<time>2011-10-13T11:55:48Z</time>
<desc>lat.=44.463703, lon.=34.146664, Alt.=335.793213m. Speed=2.484000m/h.</desc>
<speed>0.690000</speed>
</trkpt>
<trkpt lat="44.464100" lon="34.147003">
<ele>29.6</ele>
<time>2011-10-13T11:56:23Z</time>
<desc>lat.=44.464100, lon.=34.147003, Alt.=340.129150m. Speed=7.632000m/h.</desc>
<speed>2.120000</speed>
</trkpt>
<trkpt lat="44.464306" lon="34.147980">
<ele>17.9</ele>
<time>2011-10-13T11:56:38Z</time>
<desc>lat.=44.464306, lon.=34.147980, Alt.=336.269775m. Speed=0.972000m/h.</desc>
<speed>0.270000</speed>
</trkpt>
<trkpt lat="44.464886" lon="34.149006">
<ele>0.0</ele>
<time>2011-10-13T11:58:31Z</time>
<desc>lat.=44.464886, lon.=34.149006, Alt.=309.035400m. Speed=1.152000m/h.</desc>
<speed>0.320000</speed>
</trkpt>
<trkpt lat="44.464600" lon="34.148785">
<ele>0.9</ele>
<time>2011-10-13T11:59:16Z</time>
<desc>lat.=44.464600, lon.=34.148785, Alt.=301.636963m. Speed=1.404000m/h.</desc>
<speed>0.390000</speed>
</trkpt>
<trkpt lat="44.464809" lon="34.148277">
<ele>18.4</ele>
<time>2011-10-13T12:00:21Z</time>
<desc>lat.=44.464809, lon.=34.148277, Alt.=302.090088m. Speed=2.628000m/h.</desc>
<speed>0.730000</speed>
</trkpt>
<trkpt lat="44.464615" lon="34.148270">
<ele>16.3</ele>
<time>2011-10-13T12:00:36Z</time>
<desc>lat.=44.464615, lon.=34.148270, Alt.=304.066650m. Speed=3.996000m/h.</desc>
<speed>1.110000</speed>
</trkpt>
<trkpt lat="44.464249" lon="34.147713">
<ele>19.7</ele>
<time>2011-10-13T12:01:06Z</time>
<desc>lat.=44.464249, lon.=34.147713, Alt.=316.777588m. Speed=0.936000m/h.</desc>
<speed>0.260000</speed>
</trkpt>
<trkpt lat="44.463860" lon="34.147610">
<ele>21.2</ele>
<time>2011-10-13T12:01:46Z</time>
<desc>lat.=44.463860, lon.=34.147610, Alt.=327.105713m. Speed=3.096000m/h.</desc>
<speed>0.860000</speed>
</trkpt>
<trkpt lat="44.464100" lon="34.146942">
<ele>30.2</ele>
<time>2011-10-13T12:02:06Z</time>
<desc>lat.=44.464100, lon.=34.146942, Alt.=328.301025m. Speed=9.360000m/h.</desc>
<speed>2.600000</speed>
</trkpt>
<trkpt lat="44.463928" lon="34.146442">
<ele>34.1</ele>
<time>2011-10-13T12:02:31Z</time>
<desc>lat.=44.463928, lon.=34.146442, Alt.=336.011963m. Speed=3.672000m/h.</desc>
<speed>1.020000</speed>
</trkpt>
<trkpt lat="44.463928" lon="34.145226">
<ele>68.7</ele>
<time>2011-10-13T12:03:11Z</time>
<desc>lat.=44.463928, lon.=34.145226, Alt.=351.176025m. Speed=5.796000m/h.</desc>
<speed>1.610000</speed>
</trkpt>
<trkpt lat="44.463459" lon="34.145039">
<ele>66.6</ele>
<time>2011-10-13T12:03:46Z</time>
<desc>lat.=44.463459, lon.=34.145039, Alt.=361.644775m. Speed=0.612000m/h.</desc>
<speed>0.170000</speed>
</trkpt>
<trkpt lat="44.463558" lon="34.144901">
<ele>67.5</ele>
<time>2011-10-13T12:04:16Z</time>
<desc>lat.=44.463558, lon.=34.144901, Alt.=360.965088m. Speed=0.936000m/h.</desc>
<speed>0.260000</speed>
</trkpt>
<trkpt lat="44.463432" lon="34.144871">
<ele>67.1</ele>
<time>2011-10-13T12:04:31Z</time>
<desc>lat.=44.463432, lon.=34.144871, Alt.=360.629150m. Speed=2.412000m/h.</desc>
<speed>0.670000</speed>
</trkpt>
<trkpt lat="44.463448" lon="34.144371">
<ele>67.4</ele>
<time>2011-10-13T12:04:46Z</time>
<desc>lat.=44.463448, lon.=34.144371, Alt.=352.496338m. Speed=3.168000m/h.</desc>
<speed>0.880000</speed>
</trkpt>
<trkpt lat="44.463913" lon="34.143829">
<ele>81.2</ele>
<time>2011-10-13T12:05:26Z</time>
<desc>lat.=44.463913, lon.=34.143829, Alt.=334.769775m. Speed=5.220000m/h.</desc>
<speed>1.450000</speed>
</trkpt>
<trkpt lat="44.464294" lon="34.144039">
<ele>78.0</ele>
<time>2011-10-13T12:06:26Z</time>
<desc>lat.=44.464294, lon.=34.144039, Alt.=313.269775m. Speed=3.204000m/h.</desc>
<speed>0.890000</speed>
</trkpt>
<trkpt lat="44.464516" lon="34.144459">
<ele>76.4</ele>
<time>2011-10-13T12:06:56Z</time>
<desc>lat.=44.464516, lon.=34.144459, Alt.=300.082275m. Speed=6.732000m/h.</desc>
<speed>1.870000</speed>
</trkpt>
<trkpt lat="44.465031" lon="34.144207">
<ele>95.0</ele>
<time>2011-10-13T12:07:31Z</time>
<desc>lat.=44.465031, lon.=34.144207, Alt.=283.261963m. Speed=3.168000m/h.</desc>
<speed>0.880000</speed>
</trkpt>
<trkpt lat="44.465565" lon="34.144314">
<ele>108.4</ele>
<time>2011-10-13T12:07:56Z</time>
<desc>lat.=44.465565, lon.=34.144314, Alt.=265.504150m. Speed=0.540000m/h.</desc>
<speed>0.150000</speed>
</trkpt>
<trkpt lat="44.465828" lon="34.144150">
<ele>119.3</ele>
<time>2011-10-13T12:08:56Z</time>
<desc>lat.=44.465828, lon.=34.144150, Alt.=230.427856m. Speed=0.648000m/h.</desc>
<speed>0.180000</speed>
</trkpt>
<trkpt lat="44.465816" lon="34.143555">
<ele>128.6</ele>
<time>2011-10-13T12:09:26Z</time>
<desc>lat.=44.465816, lon.=34.143555, Alt.=225.341919m. Speed=2.376000m/h.</desc>
<speed>0.660000</speed>
</trkpt>
<trkpt lat="44.465553" lon="34.143539">
<ele>124.1</ele>
<time>2011-10-13T12:09:51Z</time>
<desc>lat.=44.465553, lon.=34.143539, Alt.=223.513794m. Speed=2.124000m/h.</desc>
<speed>0.590000</speed>
</trkpt>
<trkpt lat="44.465435" lon="34.143211">
<ele>125.7</ele>
<time>2011-10-13T12:10:06Z</time>
<desc>lat.=44.465435, lon.=34.143211, Alt.=221.228638m. Speed=0.252000m/h.</desc>
<speed>0.070000</speed>
</trkpt>
<trkpt lat="44.465134" lon="34.143494">
<ele>107.8</ele>
<time>2011-10-13T12:10:36Z</time>
<desc>lat.=44.465134, lon.=34.143494, Alt.=201.552856m. Speed=0.072000m/h.</desc>
<speed>0.020000</speed>
</trkpt>
<trkpt lat="44.465153" lon="34.143177">
<ele>111.6</ele>
<time>2011-10-13T12:11:21Z</time>
<desc>lat.=44.465153, lon.=34.143177, Alt.=184.291138m. Speed=1.692000m/h.</desc>
<speed>0.470000</speed>
</trkpt>
<trkpt lat="44.464779" lon="34.142544">
<ele>103.6</ele>
<time>2011-10-13T12:11:46Z</time>
<desc>lat.=44.464779, lon.=34.142544, Alt.=183.162231m. Speed=6.516000m/h.</desc>
<speed>1.810000</speed>
</trkpt>
<trkpt lat="44.464607" lon="34.141651">
<ele>114.1</ele>
<time>2011-10-13T12:12:06Z</time>
<desc>lat.=44.464607, lon.=34.141651, Alt.=190.880981m. Speed=1.548000m/h.</desc>
<speed>0.430000</speed>
</trkpt>
<trkpt lat="44.463406" lon="34.139847">
<ele>132.1</ele>
<time>2011-10-13T12:13:11Z</time>
<desc>lat.=44.463406, lon.=34.139847, Alt.=190.330200m. Speed=3.456000m/h.</desc>
<speed>0.960000</speed>
</trkpt>
<trkpt lat="44.461761" lon="34.138752">
<ele>140.6</ele>
<time>2011-10-13T12:14:21Z</time>
<desc>lat.=44.461761, lon.=34.138752, Alt.=223.537231m. Speed=1.764000m/h.</desc>
<speed>0.490000</speed>
</trkpt>
<trkpt lat="44.461140" lon="34.139313">
<ele>135.4</ele>
<time>2011-10-13T12:14:51Z</time>
<desc>lat.=44.461140, lon.=34.139313, Alt.=249.259888m. Speed=4.752000m/h.</desc>
<speed>1.320000</speed>
</trkpt>
<trkpt lat="44.460320" lon="34.140488">
<ele>99.1</ele>
<time>2011-10-13T12:15:21Z</time>
<desc>lat.=44.460320, lon.=34.140488, Alt.=273.418213m. Speed=5.292000m/h.</desc>
<speed>1.470000</speed>
</trkpt>
<trkpt lat="44.459942" lon="34.140663">
<ele>102.2</ele>
<time>2011-10-13T12:15:36Z</time>
<desc>lat.=44.459942, lon.=34.140663, Alt.=269.496338m. Speed=0.468000m/h.</desc>
<speed>0.130000</speed>
</trkpt>
<trkpt lat="44.459473" lon="34.140385">
<ele>108.2</ele>
<time>2011-10-13T12:16:36Z</time>
<desc>lat.=44.459473, lon.=34.140385, Alt.=234.373169m. Speed=4.068000m/h.</desc>
<speed>1.130000</speed>
</trkpt>
<trkpt lat="44.458965" lon="34.139282">
<ele>128.7</ele>
<time>2011-10-13T12:18:11Z</time>
<desc>lat.=44.458965, lon.=34.139282, Alt.=209.213013m. Speed=5.256000m/h.</desc>
<speed>1.460000</speed>
</trkpt>
<trkpt lat="44.458458" lon="34.139050">
<ele>110.5</ele>
<time>2011-10-13T12:18:41Z</time>
<desc>lat.=44.458458, lon.=34.139050, Alt.=227.216919m. Speed=2.628000m/h.</desc>
<speed>0.730000</speed>
</trkpt>
<trkpt lat="44.458294" lon="34.138580">
<ele>121.9</ele>
<time>2011-10-13T12:18:56Z</time>
<desc>lat.=44.458294, lon.=34.138580, Alt.=220.127075m. Speed=0.252000m/h.</desc>
<speed>0.070000</speed>
</trkpt>
<trkpt lat="44.457859" lon="34.138481">
<ele>110.4</ele>
<time>2011-10-13T12:21:21Z</time>
<desc>lat.=44.457859, lon.=34.138481, Alt.=190.451294m. Speed=0.432000m/h.</desc>
<speed>0.120000</speed>
</trkpt>
<trkpt lat="44.457783" lon="34.138302">
<ele>112.4</ele>
<time>2011-10-13T12:21:36Z</time>
<desc>lat.=44.457783, lon.=34.138302, Alt.=187.841919m. Speed=3.960000m/h.</desc>
<speed>1.100000</speed>
</trkpt>
<trkpt lat="44.457706" lon="34.137634">
<ele>124.7</ele>
<time>2011-10-13T12:22:11Z</time>
<desc>lat.=44.457706, lon.=34.137634, Alt.=197.322388m. Speed=0.684000m/h.</desc>
<speed>0.190000</speed>
</trkpt>
<trkpt lat="44.458069" lon="34.136974">
<ele>138.8</ele>
<time>2011-10-13T12:22:56Z</time>
<desc>lat.=44.458069, lon.=34.136974, Alt.=191.853638m. Speed=4.536000m/h.</desc>
<speed>1.260000</speed>
</trkpt>
<trkpt lat="44.458385" lon="34.136768">
<ele>150.1</ele>
<time>2011-10-13T12:23:21Z</time>
<desc>lat.=44.458385, lon.=34.136768, Alt.=189.088013m. Speed=1.620000m/h.</desc>
<speed>0.450000</speed>
</trkpt>
<trkpt lat="44.458359" lon="34.136906">
<ele>146.9</ele>
<time>2011-10-13T12:23:36Z</time>
<desc>lat.=44.458359, lon.=34.136906, Alt.=186.670044m. Speed=1.584000m/h.</desc>
<speed>0.440000</speed>
</trkpt>
<trkpt lat="44.458092" lon="34.136478">
<ele>147.1</ele>
<time>2011-10-13T12:24:16Z</time>
<desc>lat.=44.458092, lon.=34.136478, Alt.=181.345825m. Speed=2.016000m/h.</desc>
<speed>0.560000</speed>
</trkpt>
<trkpt lat="44.457447" lon="34.136230">
<ele>136.0</ele>
<time>2011-10-13T12:24:46Z</time>
<desc>lat.=44.457447, lon.=34.136230, Alt.=193.591919m. Speed=3.708000m/h.</desc>
<speed>1.030000</speed>
</trkpt>
<trkpt lat="44.457043" lon="34.135643">
<ele>156.6</ele>
<time>2011-10-13T12:25:06Z</time>
<desc>lat.=44.457043, lon.=34.135643, Alt.=206.005981m. Speed=0.612000m/h.</desc>
<speed>0.170000</speed>
</trkpt>
<trkpt lat="44.456253" lon="34.135376">
<ele>157.4</ele>
<time>2011-10-13T12:25:36Z</time>
<desc>lat.=44.456253, lon.=34.135376, Alt.=228.076294m. Speed=4.140000m/h.</desc>
<speed>1.150000</speed>
</trkpt>
<trkpt lat="44.455620" lon="34.134209">
<ele>173.6</ele>
<time>2011-10-13T12:26:36Z</time>
<desc>lat.=44.455620, lon.=34.134209, Alt.=217.216919m. Speed=1.152000m/h.</desc>
<speed>0.320000</speed>
</trkpt>
<trkpt lat="44.455097" lon="34.133915">
<ele>181.4</ele>
<time>2011-10-13T12:27:11Z</time>
<desc>lat.=44.455097, lon.=34.133915, Alt.=207.193481m. Speed=3.240000m/h.</desc>
<speed>0.900000</speed>
</trkpt>
<trkpt lat="44.454926" lon="34.133614">
<ele>170.9</ele>
<time>2011-10-13T12:27:21Z</time>
<desc>lat.=44.454926, lon.=34.133614, Alt.=204.205200m. Speed=4.536000m/h.</desc>
<speed>1.260000</speed>
</trkpt>
<trkpt lat="44.454380" lon="34.132259">
<ele>146.4</ele>
<time>2011-10-13T12:28:21Z</time>
<desc>lat.=44.454380, lon.=34.132259, Alt.=181.021606m. Speed=2.664000m/h.</desc>
<speed>0.740000</speed>
</trkpt>
<trkpt lat="44.454487" lon="34.131939">
<ele>151.1</ele>
<time>2011-10-13T12:28:36Z</time>
<desc>lat.=44.454487, lon.=34.131939, Alt.=170.689575m. Speed=2.304000m/h.</desc>
<speed>0.640000</speed>
</trkpt>
<trkpt lat="44.454304" lon="34.131527">
<ele>152.0</ele>
<time>2011-10-13T12:29:01Z</time>
<desc>lat.=44.454304, lon.=34.131527, Alt.=166.705200m. Speed=1.908000m/h.</desc>
<speed>0.530000</speed>
</trkpt>
<trkpt lat="44.454372" lon="34.131172">
<ele>155.3</ele>
<time>2011-10-13T12:29:26Z</time>
<desc>lat.=44.454372, lon.=34.131172, Alt.=171.584106m. Speed=1.404000m/h.</desc>
<speed>0.390000</speed>
</trkpt>
<trkpt lat="44.454201" lon="34.130760">
<ele>152.2</ele>
<time>2011-10-13T12:30:01Z</time>
<desc>lat.=44.454201, lon.=34.130760, Alt.=171.330200m. Speed=0.900000m/h.</desc>
<speed>0.250000</speed>
</trkpt>
<trkpt lat="44.454212" lon="34.130299">
<ele>161.2</ele>
<time>2011-10-13T12:30:41Z</time>
<desc>lat.=44.454212, lon.=34.130299, Alt.=167.287231m. Speed=1.764000m/h.</desc>
<speed>0.490000</speed>
</trkpt>
<trkpt lat="44.453609" lon="34.129337">
<ele>156.4</ele>
<time>2011-10-13T12:31:46Z</time>
<desc>lat.=44.453609, lon.=34.129337, Alt.=177.111450m. Speed=2.052000m/h.</desc>
<speed>0.570000</speed>
</trkpt>
<trkpt lat="44.453419" lon="34.129284">
<ele>148.7</ele>
<time>2011-10-13T12:31:56Z</time>
<desc>lat.=44.453419, lon.=34.129284, Alt.=180.466919m. Speed=6.372000m/h.</desc>
<speed>1.770000</speed>
</trkpt>
<trkpt lat="44.453117" lon="34.129692">
<ele>131.2</ele>
<time>2011-10-13T12:32:16Z</time>
<desc>lat.=44.453117, lon.=34.129692, Alt.=201.134888m. Speed=4.860000m/h.</desc>
<speed>1.350000</speed>
</trkpt>
<trkpt lat="44.452396" lon="34.129772">
<ele>128.7</ele>
<time>2011-10-13T12:32:56Z</time>
<desc>lat.=44.452396, lon.=34.129772, Alt.=240.791138m. Speed=4.860000m/h.</desc>
<speed>1.350000</speed>
</trkpt>
<trkpt lat="44.452160" lon="34.129768">
<ele>129.7</ele>
<time>2011-10-13T12:33:06Z</time>
<desc>lat.=44.452160, lon.=34.129768, Alt.=249.591919m. Speed=0.144000m/h.</desc>
<speed>0.040000</speed>
</trkpt>
<trkpt lat="44.451962" lon="34.129440">
<ele>140.2</ele>
<time>2011-10-13T12:33:21Z</time>
<desc>lat.=44.451962, lon.=34.129440, Alt.=256.019775m. Speed=4.320000m/h.</desc>
<speed>1.200000</speed>
</trkpt>
<trkpt lat="44.451801" lon="34.129795">
<ele>134.1</ele>
<time>2011-10-13T12:33:31Z</time>
<desc>lat.=44.451801, lon.=34.129795, Alt.=266.418213m. Speed=5.148000m/h.</desc>
<speed>1.430000</speed>
</trkpt>
<trkpt lat="44.451286" lon="34.129971">
<ele>141.3</ele>
<time>2011-10-13T12:33:41Z</time>
<desc>lat.=44.451286, lon.=34.129971, Alt.=274.879150m. Speed=2.232000m/h.</desc>
<speed>0.620000</speed>
</trkpt>
<trkpt lat="44.450996" lon="34.129581">
<ele>145.1</ele>
<time>2011-10-13T12:34:06Z</time>
<desc>lat.=44.450996, lon.=34.129581, Alt.=284.176025m. Speed=1.656000m/h.</desc>
<speed>0.460000</speed>
</trkpt>
<trkpt lat="44.450951" lon="34.129772">
<ele>141.7</ele>
<time>2011-10-13T12:34:21Z</time>
<desc>lat.=44.450951, lon.=34.129772, Alt.=288.590088m. Speed=2.304000m/h.</desc>
<speed>0.640000</speed>
</trkpt>
<trkpt lat="44.450863" lon="34.129475">
<ele>147.1</ele>
<time>2011-10-13T12:34:31Z</time>
<desc>lat.=44.450863, lon.=34.129475, Alt.=291.301025m. Speed=1.692000m/h.</desc>
<speed>0.470000</speed>
</trkpt>
<trkpt lat="44.449883" lon="34.129436">
<ele>153.6</ele>
<time>2011-10-13T12:35:16Z</time>
<desc>lat.=44.449883, lon.=34.129436, Alt.=296.574463m. Speed=1.944000m/h.</desc>
<speed>0.540000</speed>
</trkpt>
<trkpt lat="44.448895" lon="34.128826">
<ele>173.4</ele>
<time>2011-10-13T12:35:56Z</time>
<desc>lat.=44.448895, lon.=34.128826, Alt.=303.316650m. Speed=3.564000m/h.</desc>
<speed>0.990000</speed>
</trkpt>
<trkpt lat="44.448452" lon="34.128983">
<ele>168.7</ele>
<time>2011-10-13T12:36:01Z</time>
<desc>lat.=44.448452, lon.=34.128983, Alt.=298.972900m. Speed=4.428000m/h.</desc>
<speed>1.230000</speed>
</trkpt>
<trkpt lat="44.448257" lon="34.128475">
<ele>174.8</ele>
<time>2011-10-13T12:36:31Z</time>
<desc>lat.=44.448257, lon.=34.128475, Alt.=301.043213m. Speed=0.792000m/h.</desc>
<speed>0.220000</speed>
</trkpt>
<trkpt lat="44.447872" lon="34.128189">
<ele>178.3</ele>
<time>2011-10-13T12:36:51Z</time>
<desc>lat.=44.447872, lon.=34.128189, Alt.=309.090088m. Speed=4.356000m/h.</desc>
<speed>1.210000</speed>
</trkpt>
<trkpt lat="44.446800" lon="34.128349">
<ele>153.2</ele>
<time>2011-10-13T12:37:41Z</time>
<desc>lat.=44.446800, lon.=34.128349, Alt.=327.707275m. Speed=3.708000m/h.</desc>
<speed>1.030000</speed>
</trkpt>
<trkpt lat="44.445843" lon="34.128990">
<ele>139.0</ele>
<time>2011-10-13T12:38:11Z</time>
<desc>lat.=44.445843, lon.=34.128990, Alt.=337.676025m. Speed=7.740000m/h.</desc>
<speed>2.150000</speed>
</trkpt>
<trkpt lat="44.445282" lon="34.128925">
<ele>141.7</ele>
<time>2011-10-13T12:38:31Z</time>
<desc>lat.=44.445282, lon.=34.128925, Alt.=366.621338m. Speed=7.236000m/h.</desc>
<speed>2.010000</speed>
</trkpt>
<trkpt lat="44.444595" lon="34.129425">
<ele>138.4</ele>
<time>2011-10-13T12:38:51Z</time>
<desc>lat.=44.444595, lon.=34.129425, Alt.=386.152588m. Speed=6.768000m/h.</desc>
<speed>1.880000</speed>
</trkpt>
<trkpt lat="44.444168" lon="34.129356">
<ele>134.7</ele>
<time>2011-10-13T12:39:06Z</time>
<desc>lat.=44.444168, lon.=34.129356, Alt.=383.832275m. Speed=5.940000m/h.</desc>
<speed>1.650000</speed>
</trkpt>
<trkpt lat="44.443363" lon="34.129597">
<ele>108.5</ele>
<time>2011-10-13T12:39:36Z</time>
<desc>lat.=44.443363, lon.=34.129597, Alt.=393.808838m. Speed=1.980000m/h.</desc>
<speed>0.550000</speed>
</trkpt>
<trkpt lat="44.443409" lon="34.129452">
<ele>112.3</ele>
<time>2011-10-13T12:39:41Z</time>
<desc>lat.=44.443409, lon.=34.129452, Alt.=396.449463m. Speed=13.608000m/h.</desc>
<speed>3.780000</speed>
</trkpt>
<trkpt lat="44.442902" lon="34.130051">
<ele>96.7</ele>
<time>2011-10-13T12:40:06Z</time>
<desc>lat.=44.442902, lon.=34.130051, Alt.=421.730713m. Speed=5.904000m/h.</desc>
<speed>1.640000</speed>
</trkpt>
<trkpt lat="44.441544" lon="34.130535">
<ele>69.0</ele>
<time>2011-10-13T12:40:36Z</time>
<desc>lat.=44.441544, lon.=34.130535, Alt.=442.105713m. Speed=4.104000m/h.</desc>
<speed>1.140000</speed>
</trkpt>
<trkpt lat="44.440769" lon="34.130638">
<ele>55.2</ele>
<time>2011-10-13T12:40:51Z</time>
<desc>lat.=44.440769, lon.=34.130638, Alt.=433.863525m. Speed=6.228000m/h.</desc>
<speed>1.730000</speed>
</trkpt>
<trkpt lat="44.440277" lon="34.130390">
<ele>71.2</ele>
<time>2011-10-13T12:41:16Z</time>
<desc>lat.=44.440277, lon.=34.130390, Alt.=426.551025m. Speed=1.116000m/h.</desc>
<speed>0.310000</speed>
</trkpt>
<trkpt lat="44.439022" lon="34.130260">
<ele>84.5</ele>
<time>2011-10-13T12:42:26Z</time>
<desc>lat.=44.439022, lon.=34.130260, Alt.=428.441650m. Speed=0.720000m/h.</desc>
<speed>0.200000</speed>
</trkpt>
<trkpt lat="44.439384" lon="34.130123">
<ele>87.2</ele>
<time>2011-10-13T12:43:46Z</time>
<desc>lat.=44.439384, lon.=34.130123, Alt.=423.441650m. Speed=0.864000m/h.</desc>
<speed>0.240000</speed>
</trkpt>
<trkpt lat="44.439644" lon="34.130383">
<ele>78.9</ele>
<time>2011-10-13T12:44:06Z</time>
<desc>lat.=44.439644, lon.=34.130383, Alt.=415.355713m. Speed=1.476000m/h.</desc>
<speed>0.410000</speed>
</trkpt>
<trkpt lat="44.439369" lon="34.130371">
<ele>80.9</ele>
<time>2011-10-13T12:44:21Z</time>
<desc>lat.=44.439369, lon.=34.130371, Alt.=407.988525m. Speed=6.732000m/h.</desc>
<speed>1.870000</speed>
</trkpt>
<trkpt lat="44.438988" lon="34.129951">
<ele>92.1</ele>
<time>2011-10-13T12:44:51Z</time>
<desc>lat.=44.438988, lon.=34.129951, Alt.=399.035400m. Speed=1.044000m/h.</desc>
<speed>0.290000</speed>
</trkpt>
<trkpt lat="44.438965" lon="34.129322">
<ele>114.2</ele>
<time>2011-10-13T12:45:31Z</time>
<desc>lat.=44.438965, lon.=34.129322, Alt.=380.129150m. Speed=3.132000m/h.</desc>
<speed>0.870000</speed>
</trkpt>
<trkpt lat="44.437389" lon="34.126873">
<ele>139.2</ele>
<time>2011-10-13T12:46:31Z</time>
<desc>lat.=44.437389, lon.=34.126873, Alt.=378.363525m. Speed=6.768000m/h.</desc>
<speed>1.880000</speed>
</trkpt>
<trkpt lat="44.437408" lon="34.126545">
<ele>144.2</ele>
<time>2011-10-13T12:46:41Z</time>
<desc>lat.=44.437408, lon.=34.126545, Alt.=380.988525m. Speed=2.232000m/h.</desc>
<speed>0.620000</speed>
</trkpt>
<trkpt lat="44.437656" lon="34.126198">
<ele>159.8</ele>
<time>2011-10-13T12:46:56Z</time>
<desc>lat.=44.437656, lon.=34.126198, Alt.=387.207275m. Speed=4.608000m/h.</desc>
<speed>1.280000</speed>
</trkpt>
<trkpt lat="44.437645" lon="34.125751">
<ele>162.8</ele>
<time>2011-10-13T12:47:06Z</time>
<desc>lat.=44.437645, lon.=34.125751, Alt.=395.840088m. Speed=7.596000m/h.</desc>
<speed>2.110000</speed>
</trkpt>
<trkpt lat="44.438091" lon="34.124996">
<ele>179.4</ele>
<time>2011-10-13T12:47:31Z</time>
<desc>lat.=44.438091, lon.=34.124996, Alt.=416.676025m. Speed=2.124000m/h.</desc>
<speed>0.590000</speed>
</trkpt>
<trkpt lat="44.437679" lon="34.124680">
<ele>160.8</ele>
<time>2011-10-13T12:47:46Z</time>
<desc>lat.=44.437679, lon.=34.124680, Alt.=424.636963m. Speed=5.436000m/h.</desc>
<speed>1.510000</speed>
</trkpt>
<trkpt lat="44.437176" lon="34.123817">
<ele>144.8</ele>
<time>2011-10-13T12:48:11Z</time>
<desc>lat.=44.437176, lon.=34.123817, Alt.=451.230713m. Speed=8.064000m/h.</desc>
<speed>2.240000</speed>
</trkpt>
<trkpt lat="44.436935" lon="34.122818">
<ele>146.1</ele>
<time>2011-10-13T12:48:36Z</time>
<desc>lat.=44.436935, lon.=34.122818, Alt.=476.441650m. Speed=0.828000m/h.</desc>
<speed>0.230000</speed>
</trkpt>
<trkpt lat="44.436440" lon="34.122868">
<ele>135.7</ele>
<time>2011-10-13T12:49:16Z</time>
<desc>lat.=44.436440, lon.=34.122868, Alt.=485.051025m. Speed=0.792000m/h.</desc>
<speed>0.220000</speed>
</trkpt>
<trkpt lat="44.435562" lon="34.119801">
<ele>155.7</ele>
<time>2011-10-13T12:50:01Z</time>
<desc>lat.=44.435562, lon.=34.119801, Alt.=481.511963m. Speed=1.476000m/h.</desc>
<speed>0.410000</speed>
</trkpt>
<trkpt lat="44.435791" lon="34.118500">
<ele>169.0</ele>
<time>2011-10-13T12:50:21Z</time>
<desc>lat.=44.435791, lon.=34.118500, Alt.=464.613525m. Speed=0.648000m/h.</desc>
<speed>0.180000</speed>
</trkpt>
<trkpt lat="44.435223" lon="34.118633">
<ele>158.3</ele>
<time>2011-10-13T12:51:21Z</time>
<desc>lat.=44.435223, lon.=34.118633, Alt.=379.910400m. Speed=5.472000m/h.</desc>
<speed>1.520000</speed>
</trkpt>
<trkpt lat="44.434734" lon="34.118462">
<ele>149.3</ele>
<time>2011-10-13T12:51:41Z</time>
<desc>lat.=44.434734, lon.=34.118462, Alt.=357.058838m. Speed=9.540000m/h.</desc>
<speed>2.650000</speed>
</trkpt>
<trkpt lat="44.433960" lon="34.120037">
<ele>124.7</ele>
<time>2011-10-13T12:52:01Z</time>
<desc>lat.=44.433960, lon.=34.120037, Alt.=310.394775m. Speed=35.388000m/h.</desc>
<speed>9.830000</speed>
</trkpt>
<trkpt lat="44.433876" lon="34.120556">
<ele>120.1</ele>
<time>2011-10-13T12:52:06Z</time>
<desc>lat.=44.433876, lon.=34.120556, Alt.=301.605713m. Speed=29.844000m/h.</desc>
<speed>8.290000</speed>
</trkpt>
<trkpt lat="44.434879" lon="34.125130">
<ele>119.3</ele>
<time>2011-10-13T12:52:41Z</time>
<desc>lat.=44.434879, lon.=34.125130, Alt.=283.207275m. Speed=27.504000m/h.</desc>
<speed>7.640000</speed>
</trkpt>
<trkpt lat="44.434132" lon="34.122505">
<ele>116.6</ele>
<time>2011-10-13T12:53:06Z</time>
<desc>lat.=44.434132, lon.=34.122505, Alt.=211.361450m. Speed=31.212000m/h.</desc>
<speed>8.670000</speed>
</trkpt>
<trkpt lat="44.432659" lon="34.121296">
<ele>103.0</ele>
<time>2011-10-13T12:53:21Z</time>
<desc>lat.=44.432659, lon.=34.121296, Alt.=165.130981m. Speed=39.888000m/h.</desc>
<speed>11.080000</speed>
</trkpt>
<trkpt lat="44.432117" lon="34.121132">
<ele>98.7</ele>
<time>2011-10-13T12:53:26Z</time>
<desc>lat.=44.432117, lon.=34.121132, Alt.=153.658325m. Speed=45.035999m/h.</desc>
<speed>12.510000</speed>
</trkpt>
<trkpt lat="44.431828" lon="34.121334">
<ele>92.4</ele>
<time>2011-10-13T12:53:31Z</time>
<desc>lat.=44.431828, lon.=34.121334, Alt.=133.404419m. Speed=16.344000m/h.</desc>
<speed>4.540000</speed>
</trkpt>
<trkpt lat="44.433624" lon="34.123886">
<ele>80.6</ele>
<time>2011-10-13T12:53:56Z</time>
<desc>lat.=44.433624, lon.=34.123886, Alt.=107.004944m. Speed=27.972000m/h.</desc>
<speed>7.770000</speed>
</trkpt>
<trkpt lat="44.433502" lon="34.124645">
<ele>74.2</ele>
<time>2011-10-13T12:54:21Z</time>
<desc>lat.=44.433502, lon.=34.124645, Alt.=110.680725m. Speed=3.600000m/h.</desc>
<speed>1.000000</speed>
</trkpt>
<trkpt lat="44.433559" lon="34.124981">
<ele>74.4</ele>
<time>2011-10-13T12:54:46Z</time>
<desc>lat.=44.433559, lon.=34.124981, Alt.=112.790100m. Speed=0.504000m/h.</desc>
<speed>0.140000</speed>
</trkpt>
<trkpt lat="44.433712" lon="34.125053">
<ele>79.1</ele>
<time>2011-10-13T12:56:36Z</time>
<desc>lat.=44.433712, lon.=34.125053, Alt.=123.018616m. Speed=1.404000m/h.</desc>
<speed>0.390000</speed>
</trkpt>
<trkpt lat="44.433559" lon="34.125694">
<ele>68.5</ele>
<time>2011-10-13T13:02:46Z</time>
<desc>lat.=44.433559, lon.=34.125694, Alt.=129.810669m. Speed=1.584000m/h.</desc>
<speed>0.440000</speed>
</trkpt>
<trkpt lat="44.433159" lon="34.125786">
<ele>54.1</ele>
<time>2011-10-13T13:03:56Z</time>
<desc>lat.=44.433159, lon.=34.125786, Alt.=125.213928m. Speed=1.692000m/h.</desc>
<speed>0.470000</speed>
</trkpt>
<trkpt lat="44.432400" lon="34.127258">
<ele>21.7</ele>
<time>2011-10-13T13:07:11Z</time>
<desc>lat.=44.432400, lon.=34.127258, Alt.=49.040558m. Speed=0.972000m/h.</desc>
<speed>0.270000</speed>
</trkpt>
<trkpt lat="44.432213" lon="34.126995">
<ele>21.4</ele>
<time>2011-10-13T13:08:16Z</time>
<desc>lat.=44.432213, lon.=34.126995, Alt.=38.546417m. Speed=1.764000m/h.</desc>
<speed>0.490000</speed>
</trkpt>
<trkpt lat="44.432270" lon="34.127224">
<ele>17.9</ele>
<time>2011-10-13T13:08:56Z</time>
<desc>lat.=44.432270, lon.=34.127224, Alt.=32.259308m. Speed=1.872000m/h.</desc>
<speed>0.520000</speed>
</trkpt>
<trkpt lat="44.432060" lon="34.127071">
<ele>15.1</ele>
<time>2011-10-13T13:09:26Z</time>
<desc>lat.=44.432060, lon.=34.127071, Alt.=22.668228m. Speed=1.116000m/h.</desc>
<speed>0.310000</speed>
</trkpt>
<trkpt lat="44.431164" lon="34.127934">
<ele>12.7</ele>
<time>2011-10-13T13:11:41Z</time>
<desc>lat.=44.431164, lon.=34.127934, Alt.=43.580597m. Speed=2.520000m/h.</desc>
<speed>0.700000</speed>
</trkpt>
<trkpt lat="44.430771" lon="34.127766">
<ele>34.0</ele>
<time>2011-10-13T13:12:31Z</time>
<desc>lat.=44.430771, lon.=34.127766, Alt.=48.530792m. Speed=0.828000m/h.</desc>
<speed>0.230000</speed>
</trkpt>
<trkpt lat="44.430782" lon="34.127350">
<ele>33.8</ele>
<time>2011-10-13T13:13:36Z</time>
<desc>lat.=44.430782, lon.=34.127350, Alt.=53.489777m. Speed=1.980000m/h.</desc>
<speed>0.550000</speed>
</trkpt>
<trkpt lat="44.430576" lon="34.127094">
<ele>38.1</ele>
<time>2011-10-13T13:14:36Z</time>
<desc>lat.=44.430576, lon.=34.127094, Alt.=36.648956m. Speed=1.512000m/h.</desc>
<speed>0.420000</speed>
</trkpt>
<trkpt lat="44.430706" lon="34.127605">
<ele>36.8</ele>
<time>2011-10-13T13:15:41Z</time>
<desc>lat.=44.430706, lon.=34.127605, Alt.=27.030533m. Speed=0.756000m/h.</desc>
<speed>0.210000</speed>
</trkpt>
<trkpt lat="44.430492" lon="34.127602">
<ele>40.3</ele>
<time>2011-10-13T13:16:26Z</time>
<desc>lat.=44.430492, lon.=34.127602, Alt.=33.048370m. Speed=0.396000m/h.</desc>
<speed>0.110000</speed>
</trkpt>
<trkpt lat="44.430470" lon="34.128628">
<ele>0.0</ele>
<time>2011-10-13T13:17:41Z</time>
<desc>lat.=44.430470, lon.=34.128628, Alt.=50.809113m. Speed=2.952000m/h.</desc>
<speed>0.820000</speed>
</trkpt>
<trkpt lat="44.430740" lon="34.128635">
<ele>0.0</ele>
<time>2011-10-13T13:18:11Z</time>
<desc>lat.=44.430740, lon.=34.128635, Alt.=47.799347m. Speed=2.016000m/h.</desc>
<speed>0.560000</speed>
</trkpt>
<trkpt lat="44.430470" lon="34.128376">
<ele>2.7</ele>
<time>2011-10-13T13:19:51Z</time>
<desc>lat.=44.430470, lon.=34.128376, Alt.=49.429230m. Speed=0.360000m/h.</desc>
<speed>0.100000</speed>
</trkpt>
<trkpt lat="44.430634" lon="34.128189">
<ele>21.1</ele>
<time>2011-10-13T13:23:36Z</time>
<desc>lat.=44.430634, lon.=34.128189, Alt.=40.560089m. Speed=0.648000m/h.</desc>
<speed>0.180000</speed>
</trkpt>
<trkpt lat="44.430412" lon="34.128021">
<ele>17.8</ele>
<time>2011-10-13T13:24:11Z</time>
<desc>lat.=44.430412, lon.=34.128021, Alt.=44.781769m. Speed=3.816000m/h.</desc>
<speed>1.060000</speed>
</trkpt>
<trkpt lat="44.430214" lon="34.128128">
<ele>2.0</ele>
<time>2011-10-13T13:25:06Z</time>
<desc>lat.=44.430214, lon.=34.128128, Alt.=45.672394m. Speed=0.216000m/h.</desc>
<speed>0.060000</speed>
</trkpt>
<trkpt lat="44.430424" lon="34.127983">
<ele>22.2</ele>
<time>2011-10-13T13:26:11Z</time>
<desc>lat.=44.430424, lon.=34.127983, Alt.=38.272003m. Speed=2.376000m/h.</desc>
<speed>0.660000</speed>
</trkpt>
<trkpt lat="44.430531" lon="34.128117">
<ele>16.9</ele>
<time>2011-10-13T13:26:26Z</time>
<desc>lat.=44.430531, lon.=34.128117, Alt.=35.489777m. Speed=3.636000m/h.</desc>
<speed>1.010000</speed>
</trkpt>
<trkpt lat="44.430515" lon="34.127609">
<ele>39.9</ele>
<time>2011-10-13T13:26:56Z</time>
<desc>lat.=44.430515, lon.=34.127609, Alt.=33.662628m. Speed=3.060000m/h.</desc>
<speed>0.850000</speed>
</trkpt>
<trkpt lat="44.431061" lon="34.127808">
<ele>19.8</ele>
<time>2011-10-13T13:28:06Z</time>
<desc>lat.=44.431061, lon.=34.127808, Alt.=13.466438m. Speed=3.132000m/h.</desc>
<speed>0.870000</speed>
</trkpt>
<trkpt lat="44.431976" lon="34.127083">
<ele>15.0</ele>
<time>2011-10-13T13:31:36Z</time>
<desc>lat.=44.431976, lon.=34.127083, Alt.=17.516373m. Speed=1.620000m/h.</desc>
<speed>0.450000</speed>
</trkpt>
<trkpt lat="44.432175" lon="34.127190">
<ele>15.7</ele>
<time>2011-10-13T13:32:16Z</time>
<desc>lat.=44.432175, lon.=34.127190, Alt.=25.800064m. Speed=1.728000m/h.</desc>
<speed>0.480000</speed>
</trkpt>
<trkpt lat="44.432491" lon="34.127022">
<ele>31.1</ele>
<time>2011-10-13T13:33:01Z</time>
<desc>lat.=44.432491, lon.=34.127022, Alt.=30.832779m. Speed=6.336000m/h.</desc>
<speed>1.760000</speed>
</trkpt>
<trkpt lat="44.432831" lon="34.126312">
<ele>46.3</ele>
<time>2011-10-13T13:34:16Z</time>
<desc>lat.=44.432831, lon.=34.126312, Alt.=47.353058m. Speed=2.484000m/h.</desc>
<speed>0.690000</speed>
</trkpt>
<trkpt lat="44.433174" lon="34.126076">
<ele>55.2</ele>
<time>2011-10-13T13:34:56Z</time>
<desc>lat.=44.433174, lon.=34.126076, Alt.=56.859894m. Speed=0.504000m/h.</desc>
<speed>0.140000</speed>
</trkpt>
<trkpt lat="44.433369" lon="34.125679">
<ele>62.0</ele>
<time>2011-10-13T13:35:36Z</time>
<desc>lat.=44.433369, lon.=34.125679, Alt.=64.288147m. Speed=1.440000m/h.</desc>
<speed>0.400000</speed>
</trkpt>
<trkpt lat="44.433559" lon="34.126083">
<ele>66.6</ele>
<time>2011-10-13T13:36:31Z</time>
<desc>lat.=44.433559, lon.=34.126083, Alt.=77.385803m. Speed=3.132000m/h.</desc>
<speed>0.870000</speed>
</trkpt>
<trkpt lat="44.433765" lon="34.126011">
<ele>73.3</ele>
<time>2011-10-13T13:36:56Z</time>
<desc>lat.=44.433765, lon.=34.126011, Alt.=76.008850m. Speed=3.384000m/h.</desc>
<speed>0.940000</speed>
</trkpt>
<trkpt lat="44.433968" lon="34.126293">
<ele>78.0</ele>
<time>2011-10-13T13:42:51Z</time>
<desc>lat.=44.433968, lon.=34.126293, Alt.=79.493225m. Speed=0.468000m/h.</desc>
<speed>0.130000</speed>
</trkpt>
<trkpt lat="44.433659" lon="34.125504">
<ele>73.2</ele>
<time>2011-10-13T13:48:26Z</time>
<desc>lat.=44.433659, lon.=34.125504, Alt.=72.356506m. Speed=20.016001m/h.</desc>
<speed>5.560000</speed>
</trkpt>
<trkpt lat="44.433380" lon="34.124088">
<ele>74.9</ele>
<time>2011-10-13T13:48:56Z</time>
<desc>lat.=44.433380, lon.=34.124088, Alt.=68.446350m. Speed=10.512000m/h.</desc>
<speed>2.920000</speed>
</trkpt>
<trkpt lat="44.431725" lon="34.123154">
<ele>64.0</ele>
<time>2011-10-13T13:49:26Z</time>
<desc>lat.=44.431725, lon.=34.123154, Alt.=56.030792m. Speed=31.427999m/h.</desc>
<speed>8.730000</speed>
</trkpt>
<trkpt lat="44.430828" lon="34.122089">
<ele>60.3</ele>
<time>2011-10-13T13:49:41Z</time>
<desc>lat.=44.430828, lon.=34.122089, Alt.=51.485870m. Speed=31.572001m/h.</desc>
<speed>8.770000</speed>
</trkpt>
<trkpt lat="44.430725" lon="34.121552">
<ele>58.6</ele>
<time>2011-10-13T13:49:46Z</time>
<desc>lat.=44.430725, lon.=34.121552, Alt.=49.464386m. Speed=31.931999m/h.</desc>
<speed>8.870000</speed>
</trkpt>
<trkpt lat="44.431328" lon="34.117458">
<ele>61.9</ele>
<time>2011-10-13T13:50:41Z</time>
<desc>lat.=44.431328, lon.=34.117458, Alt.=53.594269m. Speed=12.096000m/h.</desc>
<speed>3.360000</speed>
</trkpt>
<trkpt lat="44.431057" lon="34.116314">
<ele>65.1</ele>
<time>2011-10-13T13:51:11Z</time>
<desc>lat.=44.431057, lon.=34.116314, Alt.=66.643616m. Speed=14.724000m/h.</desc>
<speed>4.090000</speed>
</trkpt>
<trkpt lat="44.430691" lon="34.112938">
<ele>64.6</ele>
<time>2011-10-13T13:52:11Z</time>
<desc>lat.=44.430691, lon.=34.112938, Alt.=79.764709m. Speed=21.312000m/h.</desc>
<speed>5.920000</speed>
</trkpt>
<trkpt lat="44.430931" lon="34.111847">
<ele>69.2</ele>
<time>2011-10-13T13:52:26Z</time>
<desc>lat.=44.430931, lon.=34.111847, Alt.=74.774475m. Speed=15.660000m/h.</desc>
<speed>4.350000</speed>
</trkpt>
<trkpt lat="44.430958" lon="34.110279">
<ele>59.8</ele>
<time>2011-10-13T13:52:46Z</time>
<desc>lat.=44.430958, lon.=34.110279, Alt.=65.633850m. Speed=30.348000m/h.</desc>
<speed>8.430000</speed>
</trkpt>
<trkpt lat="44.431492" lon="34.108932">
<ele>64.1</ele>
<time>2011-10-13T13:53:06Z</time>
<desc>lat.=44.431492, lon.=34.108932, Alt.=60.683136m. Speed=18.360001m/h.</desc>
<speed>5.100000</speed>
</trkpt>
<trkpt lat="44.430817" lon="34.108479">
<ele>59.2</ele>
<time>2011-10-13T13:53:21Z</time>
<desc>lat.=44.430817, lon.=34.108479, Alt.=59.679230m. Speed=15.048000m/h.</desc>
<speed>4.180000</speed>
</trkpt>
<trkpt lat="44.430695" lon="34.107479">
<ele>65.9</ele>
<time>2011-10-13T13:53:41Z</time>
<desc>lat.=44.430695, lon.=34.107479, Alt.=63.506378m. Speed=13.644000m/h.</desc>
<speed>3.790000</speed>
</trkpt>
<trkpt lat="44.430454" lon="34.106915">
<ele>64.9</ele>
<time>2011-10-13T13:53:56Z</time>
<desc>lat.=44.430454, lon.=34.106915, Alt.=71.026428m. Speed=10.512000m/h.</desc>
<speed>2.920000</speed>
</trkpt>
<trkpt lat="44.430557" lon="34.106552">
<ele>70.5</ele>
<time>2011-10-13T13:54:06Z</time>
<desc>lat.=44.430557, lon.=34.106552, Alt.=72.221741m. Speed=9.576000m/h.</desc>
<speed>2.660000</speed>
</trkpt>
<trkpt lat="44.431019" lon="34.106182">
<ele>78.6</ele>
<time>2011-10-13T13:55:01Z</time>
<desc>lat.=44.431019, lon.=34.106182, Alt.=82.235413m. Speed=6.840000m/h.</desc>
<speed>1.900000</speed>
</trkpt>
<trkpt lat="44.430950" lon="34.105675">
<ele>72.3</ele>
<time>2011-10-13T13:56:06Z</time>
<desc>lat.=44.430950, lon.=34.105675, Alt.=73.448303m. Speed=0.360000m/h.</desc>
<speed>0.100000</speed>
</trkpt>
<trkpt lat="44.430557" lon="34.104824">
<ele>69.9</ele>
<time>2011-10-13T14:00:21Z</time>
<desc>lat.=44.430557, lon.=34.104824, Alt.=57.064972m. Speed=7.596000m/h.</desc>
<speed>2.110000</speed>
</trkpt>
<trkpt lat="44.430977" lon="34.105911">
<ele>74.2</ele>
<time>2011-10-13T14:00:46Z</time>
<desc>lat.=44.430977, lon.=34.105911, Alt.=67.415100m. Speed=12.492000m/h.</desc>
<speed>3.470000</speed>
</trkpt>
<trkpt lat="44.430984" lon="34.106190">
<ele>78.5</ele>
<time>2011-10-13T14:00:56Z</time>
<desc>lat.=44.430984, lon.=34.106190, Alt.=69.305725m. Speed=3.960000m/h.</desc>
<speed>1.100000</speed>
</trkpt>
<trkpt lat="44.430447" lon="34.106571">
<ele>67.8</ele>
<time>2011-10-13T14:01:21Z</time>
<desc>lat.=44.430447, lon.=34.106571, Alt.=62.765167m. Speed=16.920000m/h.</desc>
<speed>4.700000</speed>
</trkpt>
<trkpt lat="44.430851" lon="34.108555">
<ele>59.2</ele>
<time>2011-10-13T14:01:56Z</time>
<desc>lat.=44.430851, lon.=34.108555, Alt.=54.077667m. Speed=18.864000m/h.</desc>
<speed>5.240000</speed>
</trkpt>
<trkpt lat="44.431049" lon="34.108742">
<ele>58.7</ele>
<time>2011-10-13T14:02:01Z</time>
<desc>lat.=44.431049, lon.=34.108742, Alt.=53.025909m. Speed=20.844000m/h.</desc>
<speed>5.790000</speed>
</trkpt>
<trkpt lat="44.431717" lon="34.108704">
<ele>67.2</ele>
<time>2011-10-13T14:02:41Z</time>
<desc>lat.=44.431717, lon.=34.108704, Alt.=59.525909m. Speed=0.612000m/h.</desc>
<speed>0.170000</speed>
</trkpt>
<trkpt lat="44.430908" lon="34.108555">
<ele>60.4</ele>
<time>2011-10-13T14:03:16Z</time>
<desc>lat.=44.430908, lon.=34.108555, Alt.=63.137238m. Speed=18.972000m/h.</desc>
<speed>5.270000</speed>
</trkpt>
<trkpt lat="44.430450" lon="34.106865">
<ele>65.2</ele>
<time>2011-10-13T14:03:46Z</time>
<desc>lat.=44.430450, lon.=34.106865, Alt.=63.217316m. Speed=15.048000m/h.</desc>
<speed>4.180000</speed>
</trkpt>
<trkpt lat="44.430573" lon="34.106480">
<ele>72.3</ele>
<time>2011-10-13T14:03:56Z</time>
<desc>lat.=44.430573, lon.=34.106480, Alt.=63.368683m. Speed=7.884000m/h.</desc>
<speed>2.190000</speed>
</trkpt>
<trkpt lat="44.431011" lon="34.106117">
<ele>77.7</ele>
<time>2011-10-13T14:04:46Z</time>
<desc>lat.=44.431011, lon.=34.106117, Alt.=76.846741m. Speed=13.752000m/h.</desc>
<speed>3.820000</speed>
</trkpt>
<trkpt lat="44.430809" lon="34.105461">
<ele>68.9</ele>
<time>2011-10-13T14:05:06Z</time>
<desc>lat.=44.430809, lon.=34.105461, Alt.=67.176819m. Speed=3.168000m/h.</desc>
<speed>0.880000</speed>
</trkpt>
<trkpt lat="44.430977" lon="34.105778">
<ele>73.2</ele>
<time>2011-10-13T14:05:21Z</time>
<desc>lat.=44.430977, lon.=34.105778, Alt.=70.127991m. Speed=3.888000m/h.</desc>
<speed>1.080000</speed>
</trkpt>
<trkpt lat="44.431076" lon="34.105465">
<ele>73.8</ele>
<time>2011-10-13T14:05:36Z</time>
<desc>lat.=44.431076, lon.=34.105465, Alt.=71.967834m. Speed=5.976000m/h.</desc>
<speed>1.660000</speed>
</trkpt>
<trkpt lat="44.431446" lon="34.105152">
<ele>80.3</ele>
<time>2011-10-13T14:05:56Z</time>
<desc>lat.=44.431446, lon.=34.105152, Alt.=73.016663m. Speed=1.872000m/h.</desc>
<speed>0.520000</speed>
</trkpt>
<trkpt lat="44.431240" lon="34.105267">
<ele>76.9</ele>
<time>2011-10-13T14:06:06Z</time>
<desc>lat.=44.431240, lon.=34.105267, Alt.=69.922913m. Speed=11.340000m/h.</desc>
<speed>3.150000</speed>
</trkpt>
<trkpt lat="44.431000" lon="34.105938">
<ele>75.0</ele>
<time>2011-10-13T14:06:26Z</time>
<desc>lat.=44.431000, lon.=34.105938, Alt.=65.196350m. Speed=6.840000m/h.</desc>
<speed>1.900000</speed>
</trkpt>
<trkpt lat="44.430962" lon="34.105808">
<ele>73.3</ele>
<time>2011-10-13T14:06:51Z</time>
<desc>lat.=44.430962, lon.=34.105808, Alt.=66.864319m. Speed=1.224000m/h.</desc>
<speed>0.340000</speed>
</trkpt>
<trkpt lat="44.430408" lon="34.105988">
<ele>70.6</ele>
<time>2011-10-13T14:07:51Z</time>
<desc>lat.=44.430408, lon.=34.105988, Alt.=63.294464m. Speed=2.736000m/h.</desc>
<speed>0.760000</speed>
</trkpt>
<trkpt lat="44.430286" lon="34.105705">
<ele>65.0</ele>
<time>2011-10-13T14:09:51Z</time>
<desc>lat.=44.430286, lon.=34.105705, Alt.=63.661652m. Speed=0.828000m/h.</desc>
<speed>0.230000</speed>
</trkpt>
</trkseg>
</trk>
</gpx>